<?xml version="1.0" encoding="UTF-8" standalone="no" ?>
<gpx xmlns="http://www.topografix.com/GPX/1/1" creator="CompeGPS" version="1.1" xmlns:xsi="http://www.w3.org/2001/XMLSchema-instance" xsi:schemaLocation="http://www.topografix.com/GPX/1/1 http://www.topografix.com/GPX/1/1/gpx.xsd http://www.garmin.com/xmlschemas/GpxExtensions/v3 http://www.garmin.com/xmlschemas/GpxExtensionsv3.xsd http://www.garmin.com/xmlschemas/TrackPointExtension/v1 http://www.garmin.com/xmlschemas/TrackPointExtensionv1.xsd" xmlns:gpxtpx="http://www.garmin.com/xmlschemas/TrackPointExtension/v1">
  <metadata>
    <link href="http://www.compegps.com">
      <text>CompeGPS TEAM, SL</text>
    </link>
    <time>2014-03-11T19:51:47Z</time>
    <bounds maxlat="43.785868" maxlon="1.512812" minlat="43.760510" minlon="1.479146"/>
  </metadata>
<wpt lat="43.778243" lon="1.479145">
  <ele>195</ele>
  <name>Vacquiers</name>
</wpt>
<wpt lat="43.773794" lon="1.484617">
  <ele>152</ele>
  <name>Chemin du Pech</name>
</wpt>
<wpt lat="43.760509" lon="1.506903">
  <ele>200</ele>
  <name>Lacour</name>
</wpt>
<wpt lat="43.768932" lon="1.512725">
  <ele>200</ele>
  <name>Corondel</name>
</wpt>
<wpt lat="43.781064" lon="1.505390">
  <ele>157</ele>
  <name>Les Toulzas</name>
</wpt>
<wpt lat="43.783794" lon="1.490242">
  <ele>139</ele>
  <name>Ruisseau de Pouchigue</name>
</wpt>
<trk>
    <name>Vacquiers</name>
    <trkseg>
      <trkpt lat="43.778243" lon="1.479145">
        <ele>199.8</ele>
        <time>2014-03-11T14:53:48Z</time>
        <name>Vacquiers</name>
      </trkpt>
      <trkpt lat="43.778261" lon="1.479204">
        <ele>199.8</ele>
        <time>2014-03-11T14:54:58Z</time>
      </trkpt>
      <trkpt lat="43.778285" lon="1.479329">
        <ele>199.5</ele>
        <time>2014-03-11T14:55:15Z</time>
      </trkpt>
      <trkpt lat="43.778317" lon="1.479576">
        <ele>198.8</ele>
        <time>2014-03-11T14:58:43Z</time>
      </trkpt>
      <trkpt lat="43.778280" lon="1.479712">
        <ele>198.2</ele>
        <time>2014-03-11T14:58:53Z</time>
      </trkpt>
      <trkpt lat="43.778237" lon="1.479853">
        <ele>198.3</ele>
        <time>2014-03-11T14:59:04Z</time>
      </trkpt>
      <trkpt lat="43.778162" lon="1.479950">
        <ele>197.8</ele>
        <time>2014-03-11T14:59:14Z</time>
      </trkpt>
      <trkpt lat="43.778085" lon="1.480047">
        <ele>197.4</ele>
        <time>2014-03-11T14:59:29Z</time>
      </trkpt>
      <trkpt lat="43.778037" lon="1.480126">
        <ele>196.4</ele>
        <time>2014-03-11T14:59:51Z</time>
      </trkpt>
      <trkpt lat="43.777938" lon="1.480136">
        <ele>196.0</ele>
        <time>2014-03-11T15:00:33Z</time>
      </trkpt>
      <trkpt lat="43.777830" lon="1.480181">
        <ele>195.2</ele>
        <time>2014-03-11T15:00:46Z</time>
      </trkpt>
      <trkpt lat="43.777724" lon="1.480226">
        <ele>194.7</ele>
        <time>2014-03-11T15:00:57Z</time>
      </trkpt>
      <trkpt lat="43.777619" lon="1.480266">
        <ele>194.2</ele>
        <time>2014-03-11T15:01:07Z</time>
      </trkpt>
      <trkpt lat="43.777533" lon="1.480340">
        <ele>193.6</ele>
        <time>2014-03-11T15:01:16Z</time>
      </trkpt>
      <trkpt lat="43.777450" lon="1.480431">
        <ele>193.3</ele>
        <time>2014-03-11T15:01:25Z</time>
      </trkpt>
      <trkpt lat="43.777378" lon="1.480518">
        <ele>193.0</ele>
        <time>2014-03-11T15:01:35Z</time>
      </trkpt>
      <trkpt lat="43.777306" lon="1.480594">
        <ele>192.3</ele>
        <time>2014-03-11T15:01:43Z</time>
      </trkpt>
      <trkpt lat="43.777229" lon="1.480696">
        <ele>191.9</ele>
        <time>2014-03-11T15:01:52Z</time>
      </trkpt>
      <trkpt lat="43.777169" lon="1.480779">
        <ele>191.4</ele>
        <time>2014-03-11T15:02:01Z</time>
      </trkpt>
      <trkpt lat="43.777106" lon="1.480871">
        <ele>190.7</ele>
        <time>2014-03-11T15:02:10Z</time>
      </trkpt>
      <trkpt lat="43.777047" lon="1.480973">
        <ele>190.5</ele>
        <time>2014-03-11T15:02:18Z</time>
      </trkpt>
      <trkpt lat="43.776975" lon="1.481071">
        <ele>189.9</ele>
        <time>2014-03-11T15:02:28Z</time>
      </trkpt>
      <trkpt lat="43.776911" lon="1.481180">
        <ele>189.3</ele>
        <time>2014-03-11T15:02:37Z</time>
      </trkpt>
      <trkpt lat="43.776846" lon="1.481276">
        <ele>188.8</ele>
        <time>2014-03-11T15:02:45Z</time>
      </trkpt>
      <trkpt lat="43.776775" lon="1.481374">
        <ele>188.4</ele>
        <time>2014-03-11T15:02:56Z</time>
      </trkpt>
      <trkpt lat="43.776701" lon="1.481480">
        <ele>187.8</ele>
        <time>2014-03-11T15:03:06Z</time>
      </trkpt>
      <trkpt lat="43.776609" lon="1.481534">
        <ele>187.5</ele>
        <time>2014-03-11T15:03:14Z</time>
      </trkpt>
      <trkpt lat="43.776533" lon="1.481631">
        <ele>186.9</ele>
        <time>2014-03-11T15:03:22Z</time>
      </trkpt>
      <trkpt lat="43.776456" lon="1.481709">
        <ele>186.1</ele>
        <time>2014-03-11T15:03:33Z</time>
      </trkpt>
      <trkpt lat="43.776356" lon="1.481727">
        <ele>185.5</ele>
        <time>2014-03-11T15:03:42Z</time>
      </trkpt>
      <trkpt lat="43.776246" lon="1.481706">
        <ele>185.1</ele>
        <time>2014-03-11T15:03:52Z</time>
      </trkpt>
      <trkpt lat="43.776143" lon="1.481654">
        <ele>184.5</ele>
        <time>2014-03-11T15:04:02Z</time>
      </trkpt>
      <trkpt lat="43.776063" lon="1.481577">
        <ele>184.1</ele>
        <time>2014-03-11T15:04:10Z</time>
      </trkpt>
      <trkpt lat="43.775981" lon="1.481480">
        <ele>183.3</ele>
        <time>2014-03-11T15:04:21Z</time>
      </trkpt>
      <trkpt lat="43.775883" lon="1.481379">
        <ele>182.8</ele>
        <time>2014-03-11T15:04:30Z</time>
      </trkpt>
      <trkpt lat="43.775784" lon="1.481292">
        <ele>182.3</ele>
        <time>2014-03-11T15:04:39Z</time>
      </trkpt>
      <trkpt lat="43.775686" lon="1.481224">
        <ele>181.8</ele>
        <time>2014-03-11T15:04:48Z</time>
      </trkpt>
      <trkpt lat="43.775566" lon="1.481180">
        <ele>180.8</ele>
        <time>2014-03-11T15:04:58Z</time>
      </trkpt>
      <trkpt lat="43.775460" lon="1.481198">
        <ele>180.2</ele>
        <time>2014-03-11T15:05:07Z</time>
      </trkpt>
      <trkpt lat="43.775362" lon="1.481224">
        <ele>179.6</ele>
        <time>2014-03-11T15:05:14Z</time>
      </trkpt>
      <trkpt lat="43.775251" lon="1.481255">
        <ele>178.4</ele>
        <time>2014-03-11T15:05:27Z</time>
      </trkpt>
      <trkpt lat="43.775136" lon="1.481316">
        <ele>177.8</ele>
        <time>2014-03-11T15:05:34Z</time>
      </trkpt>
      <trkpt lat="43.775034" lon="1.481377">
        <ele>177.2</ele>
        <time>2014-03-11T15:05:44Z</time>
      </trkpt>
      <trkpt lat="43.774938" lon="1.481438">
        <ele>176.9</ele>
        <time>2014-03-11T15:05:54Z</time>
      </trkpt>
      <trkpt lat="43.774827" lon="1.481471">
        <ele>176.4</ele>
        <time>2014-03-11T15:06:02Z</time>
      </trkpt>
      <trkpt lat="43.774737" lon="1.481533">
        <ele>175.6</ele>
        <time>2014-03-11T15:06:12Z</time>
      </trkpt>
      <trkpt lat="43.774644" lon="1.481572">
        <ele>175.1</ele>
        <time>2014-03-11T15:06:20Z</time>
      </trkpt>
      <trkpt lat="43.774541" lon="1.481652">
        <ele>174.5</ele>
        <time>2014-03-11T15:06:30Z</time>
      </trkpt>
      <trkpt lat="43.774436" lon="1.481690">
        <ele>174.0</ele>
        <time>2014-03-11T15:06:37Z</time>
      </trkpt>
      <trkpt lat="43.774337" lon="1.481729">
        <ele>173.1</ele>
        <time>2014-03-11T15:06:48Z</time>
      </trkpt>
      <trkpt lat="43.774241" lon="1.481792">
        <ele>172.3</ele>
        <time>2014-03-11T15:06:58Z</time>
      </trkpt>
      <trkpt lat="43.774127" lon="1.481873">
        <ele>171.6</ele>
        <time>2014-03-11T15:07:11Z</time>
      </trkpt>
      <trkpt lat="43.774025" lon="1.481908">
        <ele>171.0</ele>
        <time>2014-03-11T15:07:21Z</time>
      </trkpt>
      <trkpt lat="43.773926" lon="1.481937">
        <ele>170.3</ele>
        <time>2014-03-11T15:07:30Z</time>
      </trkpt>
      <trkpt lat="43.773825" lon="1.481974">
        <ele>169.6</ele>
        <time>2014-03-11T15:07:39Z</time>
      </trkpt>
      <trkpt lat="43.773722" lon="1.481996">
        <ele>169.3</ele>
        <time>2014-03-11T15:07:48Z</time>
      </trkpt>
      <trkpt lat="43.773618" lon="1.481996">
        <ele>168.8</ele>
        <time>2014-03-11T15:07:57Z</time>
      </trkpt>
      <trkpt lat="43.773530" lon="1.481974">
        <ele>168.4</ele>
        <time>2014-03-11T15:08:06Z</time>
      </trkpt>
      <trkpt lat="43.773425" lon="1.481953">
        <ele>167.8</ele>
        <time>2014-03-11T15:08:15Z</time>
      </trkpt>
      <trkpt lat="43.773325" lon="1.481969">
        <ele>167.0</ele>
        <time>2014-03-11T15:08:24Z</time>
      </trkpt>
      <trkpt lat="43.773251" lon="1.482059">
        <ele>166.1</ele>
        <time>2014-03-11T15:08:32Z</time>
      </trkpt>
      <trkpt lat="43.773220" lon="1.482156">
        <ele>165.4</ele>
        <time>2014-03-11T15:08:39Z</time>
      </trkpt>
      <trkpt lat="43.773178" lon="1.482268">
        <ele>164.7</ele>
        <time>2014-03-11T15:08:47Z</time>
      </trkpt>
      <trkpt lat="43.773180" lon="1.482376">
        <ele>164.3</ele>
        <time>2014-03-11T15:08:56Z</time>
      </trkpt>
      <trkpt lat="43.773242" lon="1.482491">
        <ele>164.0</ele>
        <time>2014-03-11T15:09:05Z</time>
      </trkpt>
      <trkpt lat="43.773332" lon="1.482573">
        <ele>163.7</ele>
        <time>2014-03-11T15:09:14Z</time>
      </trkpt>
      <trkpt lat="43.773426" lon="1.482605">
        <ele>163.2</ele>
        <time>2014-03-11T15:09:21Z</time>
      </trkpt>
      <trkpt lat="43.773518" lon="1.482622">
        <ele>162.7</ele>
        <time>2014-03-11T15:09:29Z</time>
      </trkpt>
      <trkpt lat="43.773619" lon="1.482630">
        <ele>162.1</ele>
        <time>2014-03-11T15:09:39Z</time>
      </trkpt>
      <trkpt lat="43.773736" lon="1.482682">
        <ele>161.4</ele>
        <time>2014-03-11T15:09:48Z</time>
      </trkpt>
      <trkpt lat="43.773850" lon="1.482717">
        <ele>160.6</ele>
        <time>2014-03-11T15:09:59Z</time>
      </trkpt>
      <trkpt lat="43.773944" lon="1.482781">
        <ele>160.1</ele>
        <time>2014-03-11T15:10:07Z</time>
      </trkpt>
      <trkpt lat="43.774042" lon="1.482824">
        <ele>159.5</ele>
        <time>2014-03-11T15:10:15Z</time>
      </trkpt>
      <trkpt lat="43.774133" lon="1.482882">
        <ele>159.2</ele>
        <time>2014-03-11T15:10:24Z</time>
      </trkpt>
      <trkpt lat="43.774231" lon="1.482953">
        <ele>158.8</ele>
        <time>2014-03-11T15:10:34Z</time>
      </trkpt>
      <trkpt lat="43.774319" lon="1.483034">
        <ele>158.3</ele>
        <time>2014-03-11T15:10:44Z</time>
      </trkpt>
      <trkpt lat="43.774392" lon="1.483114">
        <ele>157.8</ele>
        <time>2014-03-11T15:10:52Z</time>
      </trkpt>
      <trkpt lat="43.774465" lon="1.483194">
        <ele>157.4</ele>
        <time>2014-03-11T15:11:00Z</time>
      </trkpt>
      <trkpt lat="43.774537" lon="1.483268">
        <ele>156.6</ele>
        <time>2014-03-11T15:11:08Z</time>
      </trkpt>
      <trkpt lat="43.774612" lon="1.483364">
        <ele>155.6</ele>
        <time>2014-03-11T15:11:17Z</time>
      </trkpt>
      <trkpt lat="43.774681" lon="1.483455">
        <ele>155.0</ele>
        <time>2014-03-11T15:11:25Z</time>
      </trkpt>
      <trkpt lat="43.774725" lon="1.483560">
        <ele>154.3</ele>
        <time>2014-03-11T15:11:32Z</time>
      </trkpt>
      <trkpt lat="43.774757" lon="1.483670">
        <ele>153.7</ele>
        <time>2014-03-11T15:11:39Z</time>
      </trkpt>
      <trkpt lat="43.774763" lon="1.483781">
        <ele>153.3</ele>
        <time>2014-03-11T15:11:45Z</time>
      </trkpt>
      <trkpt lat="43.774777" lon="1.483896">
        <ele>152.6</ele>
        <time>2014-03-11T15:11:53Z</time>
      </trkpt>
      <trkpt lat="43.774750" lon="1.484016">
        <ele>152.2</ele>
        <time>2014-03-11T15:12:01Z</time>
      </trkpt>
      <trkpt lat="43.774680" lon="1.484103">
        <ele>151.7</ele>
        <time>2014-03-11T15:12:10Z</time>
      </trkpt>
      <trkpt lat="43.774616" lon="1.484204">
        <ele>151.0</ele>
        <time>2014-03-11T15:12:17Z</time>
      </trkpt>
      <trkpt lat="43.774541" lon="1.484301">
        <ele>150.5</ele>
        <time>2014-03-11T15:12:25Z</time>
      </trkpt>
      <trkpt lat="43.774493" lon="1.484409">
        <ele>150.0</ele>
        <time>2014-03-11T15:12:34Z</time>
      </trkpt>
      <trkpt lat="43.774418" lon="1.484496">
        <ele>149.7</ele>
        <time>2014-03-11T15:12:46Z</time>
      </trkpt>
      <trkpt lat="43.774320" lon="1.484574">
        <ele>149.7</ele>
        <time>2014-03-11T15:12:55Z</time>
      </trkpt>
      <trkpt lat="43.774231" lon="1.484617">
        <ele>150.1</ele>
        <time>2014-03-11T15:13:05Z</time>
      </trkpt>
      <trkpt lat="43.774139" lon="1.484632">
        <ele>150.3</ele>
        <time>2014-03-11T15:13:14Z</time>
      </trkpt>
      <trkpt lat="43.774012" lon="1.484635">
        <ele>150.4</ele>
        <time>2014-03-11T15:13:25Z</time>
      </trkpt>
      <trkpt lat="43.773900" lon="1.484630">
        <ele>150.9</ele>
        <time>2014-03-11T15:13:34Z</time>
      </trkpt>
      <trkpt lat="43.773794" lon="1.484617">
        <ele>151.6</ele>
        <time>2014-03-11T15:13:44Z</time>
        <name>Chemin du Pech</name>
      </trkpt>
      <trkpt lat="43.773783" lon="1.484738">
        <ele>152.3</ele>
        <time>2014-03-11T15:13:54Z</time>
      </trkpt>
      <trkpt lat="43.773812" lon="1.484863">
        <ele>153.3</ele>
        <time>2014-03-11T15:14:05Z</time>
      </trkpt>
      <trkpt lat="43.773807" lon="1.484995">
        <ele>153.8</ele>
        <time>2014-03-11T15:14:14Z</time>
      </trkpt>
      <trkpt lat="43.773795" lon="1.485132">
        <ele>154.1</ele>
        <time>2014-03-11T15:14:23Z</time>
      </trkpt>
      <trkpt lat="43.773772" lon="1.485260">
        <ele>154.6</ele>
        <time>2014-03-11T15:14:31Z</time>
      </trkpt>
      <trkpt lat="43.773743" lon="1.485390">
        <ele>155.0</ele>
        <time>2014-03-11T15:14:40Z</time>
      </trkpt>
      <trkpt lat="43.773699" lon="1.485510">
        <ele>155.5</ele>
        <time>2014-03-11T15:14:49Z</time>
      </trkpt>
      <trkpt lat="43.773653" lon="1.485617">
        <ele>156.2</ele>
        <time>2014-03-11T15:14:57Z</time>
      </trkpt>
      <trkpt lat="43.773596" lon="1.485734">
        <ele>156.6</ele>
        <time>2014-03-11T15:15:06Z</time>
      </trkpt>
      <trkpt lat="43.773549" lon="1.485856">
        <ele>157.1</ele>
        <time>2014-03-11T15:15:15Z</time>
      </trkpt>
      <trkpt lat="43.773511" lon="1.485972">
        <ele>157.6</ele>
        <time>2014-03-11T15:15:23Z</time>
      </trkpt>
      <trkpt lat="43.773465" lon="1.486098">
        <ele>157.7</ele>
        <time>2014-03-11T15:15:31Z</time>
      </trkpt>
      <trkpt lat="43.773427" lon="1.486235">
        <ele>157.5</ele>
        <time>2014-03-11T15:15:40Z</time>
      </trkpt>
      <trkpt lat="43.773379" lon="1.486343">
        <ele>157.6</ele>
        <time>2014-03-11T15:15:46Z</time>
      </trkpt>
      <trkpt lat="43.773347" lon="1.486458">
        <ele>157.6</ele>
        <time>2014-03-11T15:15:53Z</time>
      </trkpt>
      <trkpt lat="43.773318" lon="1.486584">
        <ele>157.4</ele>
        <time>2014-03-11T15:16:00Z</time>
      </trkpt>
      <trkpt lat="43.773305" lon="1.486696">
        <ele>157.4</ele>
        <time>2014-03-11T15:16:06Z</time>
      </trkpt>
      <trkpt lat="43.773336" lon="1.486835">
        <ele>157.4</ele>
        <time>2014-03-11T15:16:14Z</time>
      </trkpt>
      <trkpt lat="43.773322" lon="1.486966">
        <ele>157.3</ele>
        <time>2014-03-11T15:16:21Z</time>
      </trkpt>
      <trkpt lat="43.773302" lon="1.487080">
        <ele>157.3</ele>
        <time>2014-03-11T15:16:27Z</time>
      </trkpt>
      <trkpt lat="43.773321" lon="1.487210">
        <ele>157.1</ele>
        <time>2014-03-11T15:16:35Z</time>
      </trkpt>
      <trkpt lat="43.773319" lon="1.487343">
        <ele>157.1</ele>
        <time>2014-03-11T15:16:43Z</time>
      </trkpt>
      <trkpt lat="43.773300" lon="1.487471">
        <ele>156.8</ele>
        <time>2014-03-11T15:16:51Z</time>
      </trkpt>
      <trkpt lat="43.773298" lon="1.487601">
        <ele>156.7</ele>
        <time>2014-03-11T15:16:58Z</time>
      </trkpt>
      <trkpt lat="43.773274" lon="1.487723">
        <ele>156.6</ele>
        <time>2014-03-11T15:17:05Z</time>
      </trkpt>
      <trkpt lat="43.773233" lon="1.487835">
        <ele>156.5</ele>
        <time>2014-03-11T15:17:11Z</time>
      </trkpt>
      <trkpt lat="43.773239" lon="1.487961">
        <ele>156.4</ele>
        <time>2014-03-11T15:17:19Z</time>
      </trkpt>
      <trkpt lat="43.773224" lon="1.488091">
        <ele>156.5</ele>
        <time>2014-03-11T15:17:27Z</time>
      </trkpt>
      <trkpt lat="43.773185" lon="1.488221">
        <ele>156.5</ele>
        <time>2014-03-11T15:17:34Z</time>
      </trkpt>
      <trkpt lat="43.773131" lon="1.488332">
        <ele>156.4</ele>
        <time>2014-03-11T15:17:40Z</time>
      </trkpt>
      <trkpt lat="43.773085" lon="1.488436">
        <ele>156.3</ele>
        <time>2014-03-11T15:17:45Z</time>
      </trkpt>
      <trkpt lat="43.773053" lon="1.488543">
        <ele>156.3</ele>
        <time>2014-03-11T15:17:51Z</time>
      </trkpt>
      <trkpt lat="43.773025" lon="1.488662">
        <ele>156.1</ele>
        <time>2014-03-11T15:17:59Z</time>
      </trkpt>
      <trkpt lat="43.772978" lon="1.488812">
        <ele>156.0</ele>
        <time>2014-03-11T15:18:09Z</time>
      </trkpt>
      <trkpt lat="43.772919" lon="1.488938">
        <ele>156.0</ele>
        <time>2014-03-11T15:18:17Z</time>
      </trkpt>
      <trkpt lat="43.772850" lon="1.489048">
        <ele>155.9</ele>
        <time>2014-03-11T15:18:24Z</time>
      </trkpt>
      <trkpt lat="43.772789" lon="1.489167">
        <ele>155.9</ele>
        <time>2014-03-11T15:18:30Z</time>
      </trkpt>
      <trkpt lat="43.772728" lon="1.489294">
        <ele>155.8</ele>
        <time>2014-03-11T15:18:36Z</time>
      </trkpt>
      <trkpt lat="43.772679" lon="1.489388">
        <ele>155.9</ele>
        <time>2014-03-11T15:18:44Z</time>
      </trkpt>
      <trkpt lat="43.772612" lon="1.489497">
        <ele>156.0</ele>
        <time>2014-03-11T15:18:55Z</time>
      </trkpt>
      <trkpt lat="43.772534" lon="1.489604">
        <ele>155.9</ele>
        <time>2014-03-11T15:19:04Z</time>
      </trkpt>
      <trkpt lat="43.772465" lon="1.489705">
        <ele>155.9</ele>
        <time>2014-03-11T15:19:11Z</time>
      </trkpt>
      <trkpt lat="43.772407" lon="1.489801">
        <ele>155.9</ele>
        <time>2014-03-11T15:19:20Z</time>
      </trkpt>
      <trkpt lat="43.772346" lon="1.489907">
        <ele>155.9</ele>
        <time>2014-03-11T15:19:27Z</time>
      </trkpt>
      <trkpt lat="43.772292" lon="1.490016">
        <ele>156.1</ele>
        <time>2014-03-11T15:19:35Z</time>
      </trkpt>
      <trkpt lat="43.772230" lon="1.490130">
        <ele>155.9</ele>
        <time>2014-03-11T15:19:43Z</time>
      </trkpt>
      <trkpt lat="43.772179" lon="1.490240">
        <ele>155.9</ele>
        <time>2014-03-11T15:19:51Z</time>
      </trkpt>
      <trkpt lat="43.772119" lon="1.490352">
        <ele>155.9</ele>
        <time>2014-03-11T15:19:59Z</time>
      </trkpt>
      <trkpt lat="43.772067" lon="1.490457">
        <ele>155.7</ele>
        <time>2014-03-11T15:20:05Z</time>
      </trkpt>
      <trkpt lat="43.772047" lon="1.490583">
        <ele>155.7</ele>
        <time>2014-03-11T15:20:13Z</time>
      </trkpt>
      <trkpt lat="43.772030" lon="1.490694">
        <ele>155.7</ele>
        <time>2014-03-11T15:20:22Z</time>
      </trkpt>
      <trkpt lat="43.771992" lon="1.490785">
        <ele>155.6</ele>
        <time>2014-03-11T15:21:14Z</time>
      </trkpt>
      <trkpt lat="43.771954" lon="1.490919">
        <ele>155.6</ele>
        <time>2014-03-11T15:21:23Z</time>
      </trkpt>
      <trkpt lat="43.771923" lon="1.491053">
        <ele>155.5</ele>
        <time>2014-03-11T15:21:32Z</time>
      </trkpt>
      <trkpt lat="43.771855" lon="1.491156">
        <ele>155.2</ele>
        <time>2014-03-11T15:21:39Z</time>
      </trkpt>
      <trkpt lat="43.771795" lon="1.491255">
        <ele>155.1</ele>
        <time>2014-03-11T15:21:45Z</time>
      </trkpt>
      <trkpt lat="43.771744" lon="1.491355">
        <ele>154.9</ele>
        <time>2014-03-11T15:21:52Z</time>
      </trkpt>
      <trkpt lat="43.771682" lon="1.491480">
        <ele>154.8</ele>
        <time>2014-03-11T15:22:01Z</time>
      </trkpt>
      <trkpt lat="43.771618" lon="1.491570">
        <ele>154.7</ele>
        <time>2014-03-11T15:22:07Z</time>
      </trkpt>
      <trkpt lat="43.771542" lon="1.491653">
        <ele>154.6</ele>
        <time>2014-03-11T15:22:14Z</time>
      </trkpt>
      <trkpt lat="43.771474" lon="1.491742">
        <ele>154.6</ele>
        <time>2014-03-11T15:22:21Z</time>
      </trkpt>
      <trkpt lat="43.771415" lon="1.491866">
        <ele>154.6</ele>
        <time>2014-03-11T15:22:30Z</time>
      </trkpt>
      <trkpt lat="43.771352" lon="1.491958">
        <ele>154.6</ele>
        <time>2014-03-11T15:22:37Z</time>
      </trkpt>
      <trkpt lat="43.771307" lon="1.492060">
        <ele>154.4</ele>
        <time>2014-03-11T15:22:45Z</time>
      </trkpt>
      <trkpt lat="43.771260" lon="1.492164">
        <ele>154.4</ele>
        <time>2014-03-11T15:22:53Z</time>
      </trkpt>
      <trkpt lat="43.771202" lon="1.492251">
        <ele>154.4</ele>
        <time>2014-03-11T15:23:18Z</time>
      </trkpt>
      <trkpt lat="43.771136" lon="1.492340">
        <ele>154.8</ele>
        <time>2014-03-11T15:23:41Z</time>
      </trkpt>
      <trkpt lat="43.771061" lon="1.492428">
        <ele>154.9</ele>
        <time>2014-03-11T15:23:49Z</time>
      </trkpt>
      <trkpt lat="43.770993" lon="1.492534">
        <ele>154.9</ele>
        <time>2014-03-11T15:23:58Z</time>
      </trkpt>
      <trkpt lat="43.770916" lon="1.492620">
        <ele>154.9</ele>
        <time>2014-03-11T15:24:05Z</time>
      </trkpt>
      <trkpt lat="43.770842" lon="1.492717">
        <ele>154.9</ele>
        <time>2014-03-11T15:24:12Z</time>
      </trkpt>
      <trkpt lat="43.770771" lon="1.492806">
        <ele>154.8</ele>
        <time>2014-03-11T15:24:19Z</time>
      </trkpt>
      <trkpt lat="43.770722" lon="1.492896">
        <ele>155.2</ele>
        <time>2014-03-11T15:24:27Z</time>
      </trkpt>
      <trkpt lat="43.770654" lon="1.492993">
        <ele>155.4</ele>
        <time>2014-03-11T15:24:34Z</time>
      </trkpt>
      <trkpt lat="43.770600" lon="1.493107">
        <ele>155.6</ele>
        <time>2014-03-11T15:24:43Z</time>
      </trkpt>
      <trkpt lat="43.770555" lon="1.493223">
        <ele>155.9</ele>
        <time>2014-03-11T15:24:51Z</time>
      </trkpt>
      <trkpt lat="43.770510" lon="1.493328">
        <ele>156.0</ele>
        <time>2014-03-11T15:24:58Z</time>
      </trkpt>
      <trkpt lat="43.770469" lon="1.493440">
        <ele>156.2</ele>
        <time>2014-03-11T15:25:05Z</time>
      </trkpt>
      <trkpt lat="43.770420" lon="1.493556">
        <ele>156.0</ele>
        <time>2014-03-11T15:25:13Z</time>
      </trkpt>
      <trkpt lat="43.770382" lon="1.493669">
        <ele>155.8</ele>
        <time>2014-03-11T15:25:20Z</time>
      </trkpt>
      <trkpt lat="43.770341" lon="1.493773">
        <ele>155.6</ele>
        <time>2014-03-11T15:25:27Z</time>
      </trkpt>
      <trkpt lat="43.770287" lon="1.493891">
        <ele>155.2</ele>
        <time>2014-03-11T15:25:35Z</time>
      </trkpt>
      <trkpt lat="43.770244" lon="1.494010">
        <ele>154.9</ele>
        <time>2014-03-11T15:25:42Z</time>
      </trkpt>
      <trkpt lat="43.770209" lon="1.494124">
        <ele>154.6</ele>
        <time>2014-03-11T15:25:50Z</time>
      </trkpt>
      <trkpt lat="43.770199" lon="1.494259">
        <ele>154.3</ele>
        <time>2014-03-11T15:25:58Z</time>
      </trkpt>
      <trkpt lat="43.770201" lon="1.494383">
        <ele>154.1</ele>
        <time>2014-03-11T15:26:06Z</time>
      </trkpt>
      <trkpt lat="43.770211" lon="1.494520">
        <ele>153.8</ele>
        <time>2014-03-11T15:26:14Z</time>
      </trkpt>
      <trkpt lat="43.770211" lon="1.494640">
        <ele>153.8</ele>
        <time>2014-03-11T15:26:21Z</time>
      </trkpt>
      <trkpt lat="43.770179" lon="1.494752">
        <ele>153.6</ele>
        <time>2014-03-11T15:26:28Z</time>
      </trkpt>
      <trkpt lat="43.770120" lon="1.494834">
        <ele>153.9</ele>
        <time>2014-03-11T15:27:07Z</time>
      </trkpt>
      <trkpt lat="43.770028" lon="1.494889">
        <ele>153.9</ele>
        <time>2014-03-11T15:27:16Z</time>
      </trkpt>
      <trkpt lat="43.769933" lon="1.494930">
        <ele>154.1</ele>
        <time>2014-03-11T15:27:24Z</time>
      </trkpt>
      <trkpt lat="43.769843" lon="1.494969">
        <ele>154.6</ele>
        <time>2014-03-11T15:27:32Z</time>
      </trkpt>
      <trkpt lat="43.769755" lon="1.495010">
        <ele>155.1</ele>
        <time>2014-03-11T15:27:40Z</time>
      </trkpt>
      <trkpt lat="43.769665" lon="1.495057">
        <ele>155.7</ele>
        <time>2014-03-11T15:27:48Z</time>
      </trkpt>
      <trkpt lat="43.769575" lon="1.495112">
        <ele>156.3</ele>
        <time>2014-03-11T15:27:56Z</time>
      </trkpt>
      <trkpt lat="43.769496" lon="1.495181">
        <ele>156.7</ele>
        <time>2014-03-11T15:28:03Z</time>
      </trkpt>
      <trkpt lat="43.769422" lon="1.495239">
        <ele>157.5</ele>
        <time>2014-03-11T15:28:10Z</time>
      </trkpt>
      <trkpt lat="43.769350" lon="1.495316">
        <ele>158.5</ele>
        <time>2014-03-11T15:28:17Z</time>
      </trkpt>
      <trkpt lat="43.769276" lon="1.495382">
        <ele>159.5</ele>
        <time>2014-03-11T15:28:25Z</time>
      </trkpt>
      <trkpt lat="43.769198" lon="1.495464">
        <ele>160.9</ele>
        <time>2014-03-11T15:28:34Z</time>
      </trkpt>
      <trkpt lat="43.769125" lon="1.495534">
        <ele>161.8</ele>
        <time>2014-03-11T15:28:42Z</time>
      </trkpt>
      <trkpt lat="43.769052" lon="1.495605">
        <ele>162.5</ele>
        <time>2014-03-11T15:28:49Z</time>
      </trkpt>
      <trkpt lat="43.768979" lon="1.495671">
        <ele>163.7</ele>
        <time>2014-03-11T15:28:57Z</time>
      </trkpt>
      <trkpt lat="43.768906" lon="1.495751">
        <ele>164.7</ele>
        <time>2014-03-11T15:29:05Z</time>
      </trkpt>
      <trkpt lat="43.768828" lon="1.495861">
        <ele>165.6</ele>
        <time>2014-03-11T15:29:13Z</time>
      </trkpt>
      <trkpt lat="43.768765" lon="1.495981">
        <ele>166.1</ele>
        <time>2014-03-11T15:29:21Z</time>
      </trkpt>
      <trkpt lat="43.768724" lon="1.496090">
        <ele>166.6</ele>
        <time>2014-03-11T15:29:29Z</time>
      </trkpt>
      <trkpt lat="43.768663" lon="1.496191">
        <ele>167.1</ele>
        <time>2014-03-11T15:29:37Z</time>
      </trkpt>
      <trkpt lat="43.768593" lon="1.496276">
        <ele>167.6</ele>
        <time>2014-03-11T15:29:44Z</time>
      </trkpt>
      <trkpt lat="43.768526" lon="1.496361">
        <ele>168.0</ele>
        <time>2014-03-11T15:29:51Z</time>
      </trkpt>
      <trkpt lat="43.768453" lon="1.496446">
        <ele>168.5</ele>
        <time>2014-03-11T15:29:59Z</time>
      </trkpt>
      <trkpt lat="43.768370" lon="1.496530">
        <ele>169.2</ele>
        <time>2014-03-11T15:30:07Z</time>
      </trkpt>
      <trkpt lat="43.768284" lon="1.496601">
        <ele>170.1</ele>
        <time>2014-03-11T15:30:15Z</time>
      </trkpt>
      <trkpt lat="43.768193" lon="1.496664">
        <ele>170.8</ele>
        <time>2014-03-11T15:30:23Z</time>
      </trkpt>
      <trkpt lat="43.768111" lon="1.496731">
        <ele>171.0</ele>
        <time>2014-03-11T15:30:31Z</time>
      </trkpt>
      <trkpt lat="43.768031" lon="1.496797">
        <ele>171.4</ele>
        <time>2014-03-11T15:30:39Z</time>
      </trkpt>
      <trkpt lat="43.767944" lon="1.496870">
        <ele>171.6</ele>
        <time>2014-03-11T15:30:47Z</time>
      </trkpt>
      <trkpt lat="43.767862" lon="1.496938">
        <ele>171.9</ele>
        <time>2014-03-11T15:30:55Z</time>
      </trkpt>
      <trkpt lat="43.767782" lon="1.497013">
        <ele>172.4</ele>
        <time>2014-03-11T15:31:03Z</time>
      </trkpt>
      <trkpt lat="43.767697" lon="1.497080">
        <ele>173.1</ele>
        <time>2014-03-11T15:31:11Z</time>
      </trkpt>
      <trkpt lat="43.767616" lon="1.497141">
        <ele>174.1</ele>
        <time>2014-03-11T15:31:20Z</time>
      </trkpt>
      <trkpt lat="43.767539" lon="1.497216">
        <ele>174.3</ele>
        <time>2014-03-11T15:31:29Z</time>
      </trkpt>
      <trkpt lat="43.767464" lon="1.497287">
        <ele>174.6</ele>
        <time>2014-03-11T15:31:37Z</time>
      </trkpt>
      <trkpt lat="43.767392" lon="1.497362">
        <ele>175.5</ele>
        <time>2014-03-11T15:31:45Z</time>
      </trkpt>
      <trkpt lat="43.767322" lon="1.497441">
        <ele>176.2</ele>
        <time>2014-03-11T15:31:53Z</time>
      </trkpt>
      <trkpt lat="43.767251" lon="1.497530">
        <ele>176.8</ele>
        <time>2014-03-11T15:32:01Z</time>
      </trkpt>
      <trkpt lat="43.767186" lon="1.497629">
        <ele>177.4</ele>
        <time>2014-03-11T15:32:08Z</time>
      </trkpt>
      <trkpt lat="43.767120" lon="1.497715">
        <ele>178.1</ele>
        <time>2014-03-11T15:32:16Z</time>
      </trkpt>
      <trkpt lat="43.767041" lon="1.497814">
        <ele>178.5</ele>
        <time>2014-03-11T15:32:25Z</time>
      </trkpt>
      <trkpt lat="43.766972" lon="1.497900">
        <ele>178.9</ele>
        <time>2014-03-11T15:32:33Z</time>
      </trkpt>
      <trkpt lat="43.766896" lon="1.497988">
        <ele>179.1</ele>
        <time>2014-03-11T15:32:41Z</time>
      </trkpt>
      <trkpt lat="43.766832" lon="1.498087">
        <ele>179.4</ele>
        <time>2014-03-11T15:32:50Z</time>
      </trkpt>
      <trkpt lat="43.766776" lon="1.498164">
        <ele>179.5</ele>
        <time>2014-03-11T15:33:31Z</time>
      </trkpt>
      <trkpt lat="43.766697" lon="1.498251">
        <ele>180.0</ele>
        <time>2014-03-11T15:33:40Z</time>
      </trkpt>
      <trkpt lat="43.766628" lon="1.498341">
        <ele>180.4</ele>
        <time>2014-03-11T15:33:48Z</time>
      </trkpt>
      <trkpt lat="43.766550" lon="1.498434">
        <ele>180.8</ele>
        <time>2014-03-11T15:34:08Z</time>
      </trkpt>
      <trkpt lat="43.766474" lon="1.498531">
        <ele>181.2</ele>
        <time>2014-03-11T15:34:16Z</time>
      </trkpt>
      <trkpt lat="43.766397" lon="1.498618">
        <ele>181.6</ele>
        <time>2014-03-11T15:34:24Z</time>
      </trkpt>
      <trkpt lat="43.766322" lon="1.498703">
        <ele>182.1</ele>
        <time>2014-03-11T15:34:32Z</time>
      </trkpt>
      <trkpt lat="43.766250" lon="1.498819">
        <ele>182.3</ele>
        <time>2014-03-11T15:34:40Z</time>
      </trkpt>
      <trkpt lat="43.766188" lon="1.498914">
        <ele>182.5</ele>
        <time>2014-03-11T15:34:47Z</time>
      </trkpt>
      <trkpt lat="43.766124" lon="1.499015">
        <ele>182.6</ele>
        <time>2014-03-11T15:34:55Z</time>
      </trkpt>
      <trkpt lat="43.766053" lon="1.499111">
        <ele>182.9</ele>
        <time>2014-03-11T15:35:03Z</time>
      </trkpt>
      <trkpt lat="43.765975" lon="1.499183">
        <ele>183.2</ele>
        <time>2014-03-11T15:35:10Z</time>
      </trkpt>
      <trkpt lat="43.765906" lon="1.499276">
        <ele>183.4</ele>
        <time>2014-03-11T15:35:18Z</time>
      </trkpt>
      <trkpt lat="43.765836" lon="1.499367">
        <ele>183.6</ele>
        <time>2014-03-11T15:35:25Z</time>
      </trkpt>
      <trkpt lat="43.765769" lon="1.499485">
        <ele>183.9</ele>
        <time>2014-03-11T15:35:33Z</time>
      </trkpt>
      <trkpt lat="43.765701" lon="1.499567">
        <ele>184.4</ele>
        <time>2014-03-11T15:35:40Z</time>
      </trkpt>
      <trkpt lat="43.765638" lon="1.499663">
        <ele>184.9</ele>
        <time>2014-03-11T15:35:47Z</time>
      </trkpt>
      <trkpt lat="43.765567" lon="1.499771">
        <ele>185.3</ele>
        <time>2014-03-11T15:35:54Z</time>
      </trkpt>
      <trkpt lat="43.765510" lon="1.499866">
        <ele>185.7</ele>
        <time>2014-03-11T15:36:02Z</time>
      </trkpt>
      <trkpt lat="43.765446" lon="1.499957">
        <ele>186.0</ele>
        <time>2014-03-11T15:36:09Z</time>
      </trkpt>
      <trkpt lat="43.765382" lon="1.500056">
        <ele>186.1</ele>
        <time>2014-03-11T15:36:16Z</time>
      </trkpt>
      <trkpt lat="43.765319" lon="1.500149">
        <ele>186.2</ele>
        <time>2014-03-11T15:36:23Z</time>
      </trkpt>
      <trkpt lat="43.765264" lon="1.500238">
        <ele>186.4</ele>
        <time>2014-03-11T15:36:30Z</time>
      </trkpt>
      <trkpt lat="43.765194" lon="1.500358">
        <ele>186.9</ele>
        <time>2014-03-11T15:36:39Z</time>
      </trkpt>
      <trkpt lat="43.765130" lon="1.500435">
        <ele>186.9</ele>
        <time>2014-03-11T15:36:45Z</time>
      </trkpt>
      <trkpt lat="43.765077" lon="1.500553">
        <ele>187.2</ele>
        <time>2014-03-11T15:36:54Z</time>
      </trkpt>
      <trkpt lat="43.765009" lon="1.500656">
        <ele>187.3</ele>
        <time>2014-03-11T15:37:01Z</time>
      </trkpt>
      <trkpt lat="43.764949" lon="1.500751">
        <ele>187.4</ele>
        <time>2014-03-11T15:37:08Z</time>
      </trkpt>
      <trkpt lat="43.764882" lon="1.500849">
        <ele>187.4</ele>
        <time>2014-03-11T15:37:15Z</time>
      </trkpt>
      <trkpt lat="43.764812" lon="1.500950">
        <ele>187.5</ele>
        <time>2014-03-11T15:37:22Z</time>
      </trkpt>
      <trkpt lat="43.764742" lon="1.501049">
        <ele>187.5</ele>
        <time>2014-03-11T15:37:31Z</time>
      </trkpt>
      <trkpt lat="43.764668" lon="1.501139">
        <ele>187.7</ele>
        <time>2014-03-11T15:37:37Z</time>
      </trkpt>
      <trkpt lat="43.764598" lon="1.501241">
        <ele>187.6</ele>
        <time>2014-03-11T15:37:46Z</time>
      </trkpt>
      <trkpt lat="43.764520" lon="1.501315">
        <ele>187.7</ele>
        <time>2014-03-11T15:37:55Z</time>
      </trkpt>
      <trkpt lat="43.764444" lon="1.501399">
        <ele>187.9</ele>
        <time>2014-03-11T15:38:03Z</time>
      </trkpt>
      <trkpt lat="43.764351" lon="1.501486">
        <ele>187.9</ele>
        <time>2014-03-11T15:38:11Z</time>
      </trkpt>
      <trkpt lat="43.764266" lon="1.501542">
        <ele>187.7</ele>
        <time>2014-03-11T15:38:18Z</time>
      </trkpt>
      <trkpt lat="43.764198" lon="1.501625">
        <ele>187.4</ele>
        <time>2014-03-11T15:38:27Z</time>
      </trkpt>
      <trkpt lat="43.764121" lon="1.501709">
        <ele>187.3</ele>
        <time>2014-03-11T15:38:34Z</time>
      </trkpt>
      <trkpt lat="43.764049" lon="1.501791">
        <ele>187.3</ele>
        <time>2014-03-11T15:38:42Z</time>
      </trkpt>
      <trkpt lat="43.763971" lon="1.501879">
        <ele>187.2</ele>
        <time>2014-03-11T15:38:50Z</time>
      </trkpt>
      <trkpt lat="43.763897" lon="1.501969">
        <ele>187.4</ele>
        <time>2014-03-11T15:38:57Z</time>
      </trkpt>
      <trkpt lat="43.763825" lon="1.502055">
        <ele>187.2</ele>
        <time>2014-03-11T15:39:04Z</time>
      </trkpt>
      <trkpt lat="43.763754" lon="1.502149">
        <ele>187.1</ele>
        <time>2014-03-11T15:39:13Z</time>
      </trkpt>
      <trkpt lat="43.763682" lon="1.502248">
        <ele>187.4</ele>
        <time>2014-03-11T15:39:20Z</time>
      </trkpt>
      <trkpt lat="43.763624" lon="1.502342">
        <ele>187.3</ele>
        <time>2014-03-11T15:39:27Z</time>
      </trkpt>
      <trkpt lat="43.763565" lon="1.502433">
        <ele>187.2</ele>
        <time>2014-03-11T15:39:34Z</time>
      </trkpt>
      <trkpt lat="43.763505" lon="1.502519">
        <ele>187.2</ele>
        <time>2014-03-11T15:39:40Z</time>
      </trkpt>
      <trkpt lat="43.763449" lon="1.502607">
        <ele>187.3</ele>
        <time>2014-03-11T15:39:47Z</time>
      </trkpt>
      <trkpt lat="43.763388" lon="1.502713">
        <ele>187.3</ele>
        <time>2014-03-11T15:39:55Z</time>
      </trkpt>
      <trkpt lat="43.763323" lon="1.502819">
        <ele>187.7</ele>
        <time>2014-03-11T15:40:03Z</time>
      </trkpt>
      <trkpt lat="43.763258" lon="1.502925">
        <ele>187.9</ele>
        <time>2014-03-11T15:40:11Z</time>
      </trkpt>
      <trkpt lat="43.763200" lon="1.503029">
        <ele>188.1</ele>
        <time>2014-03-11T15:40:19Z</time>
      </trkpt>
      <trkpt lat="43.763135" lon="1.503138">
        <ele>188.0</ele>
        <time>2014-03-11T15:40:28Z</time>
      </trkpt>
      <trkpt lat="43.763071" lon="1.503253">
        <ele>188.0</ele>
        <time>2014-03-11T15:40:36Z</time>
      </trkpt>
      <trkpt lat="43.763015" lon="1.503351">
        <ele>188.2</ele>
        <time>2014-03-11T15:40:44Z</time>
      </trkpt>
      <trkpt lat="43.762945" lon="1.503466">
        <ele>188.2</ele>
        <time>2014-03-11T15:40:53Z</time>
      </trkpt>
      <trkpt lat="43.762880" lon="1.503567">
        <ele>188.2</ele>
        <time>2014-03-11T15:41:00Z</time>
      </trkpt>
      <trkpt lat="43.762816" lon="1.503681">
        <ele>188.5</ele>
        <time>2014-03-11T15:41:08Z</time>
      </trkpt>
      <trkpt lat="43.762767" lon="1.503779">
        <ele>188.8</ele>
        <time>2014-03-11T15:41:16Z</time>
      </trkpt>
      <trkpt lat="43.762704" lon="1.503882">
        <ele>189.0</ele>
        <time>2014-03-11T15:41:24Z</time>
      </trkpt>
      <trkpt lat="43.762641" lon="1.503988">
        <ele>189.4</ele>
        <time>2014-03-11T15:41:31Z</time>
      </trkpt>
      <trkpt lat="43.762586" lon="1.504087">
        <ele>189.6</ele>
        <time>2014-03-11T15:41:38Z</time>
      </trkpt>
      <trkpt lat="43.762527" lon="1.504184">
        <ele>189.8</ele>
        <time>2014-03-11T15:41:45Z</time>
      </trkpt>
      <trkpt lat="43.762463" lon="1.504277">
        <ele>189.7</ele>
        <time>2014-03-11T15:41:53Z</time>
      </trkpt>
      <trkpt lat="43.762406" lon="1.504371">
        <ele>190.0</ele>
        <time>2014-03-11T15:42:01Z</time>
      </trkpt>
      <trkpt lat="43.762339" lon="1.504482">
        <ele>190.3</ele>
        <time>2014-03-11T15:42:09Z</time>
      </trkpt>
      <trkpt lat="43.762291" lon="1.504600">
        <ele>190.9</ele>
        <time>2014-03-11T15:42:17Z</time>
      </trkpt>
      <trkpt lat="43.762249" lon="1.504652">
        <ele>191.4</ele>
        <time>2014-03-11T15:42:29Z</time>
      </trkpt>
      <trkpt lat="43.762179" lon="1.504745">
        <ele>191.6</ele>
        <time>2014-03-11T15:42:37Z</time>
      </trkpt>
      <trkpt lat="43.762107" lon="1.504850">
        <ele>191.9</ele>
        <time>2014-03-11T15:42:46Z</time>
      </trkpt>
      <trkpt lat="43.762040" lon="1.504930">
        <ele>192.3</ele>
        <time>2014-03-11T15:42:54Z</time>
      </trkpt>
      <trkpt lat="43.761972" lon="1.505024">
        <ele>192.6</ele>
        <time>2014-03-11T15:43:03Z</time>
      </trkpt>
      <trkpt lat="43.761909" lon="1.505116">
        <ele>192.9</ele>
        <time>2014-03-11T15:43:12Z</time>
      </trkpt>
      <trkpt lat="43.761834" lon="1.505220">
        <ele>192.9</ele>
        <time>2014-03-11T15:43:21Z</time>
      </trkpt>
      <trkpt lat="43.761762" lon="1.505317">
        <ele>193.3</ele>
        <time>2014-03-11T15:43:29Z</time>
      </trkpt>
      <trkpt lat="43.761686" lon="1.505426">
        <ele>193.7</ele>
        <time>2014-03-11T15:43:38Z</time>
      </trkpt>
      <trkpt lat="43.761615" lon="1.505515">
        <ele>194.0</ele>
        <time>2014-03-11T15:43:46Z</time>
      </trkpt>
      <trkpt lat="43.761550" lon="1.505601">
        <ele>194.3</ele>
        <time>2014-03-11T15:43:53Z</time>
      </trkpt>
      <trkpt lat="43.761484" lon="1.505703">
        <ele>194.3</ele>
        <time>2014-03-11T15:44:01Z</time>
      </trkpt>
      <trkpt lat="43.761412" lon="1.505787">
        <ele>194.6</ele>
        <time>2014-03-11T15:44:08Z</time>
      </trkpt>
      <trkpt lat="43.761349" lon="1.505878">
        <ele>194.8</ele>
        <time>2014-03-11T15:44:15Z</time>
      </trkpt>
      <trkpt lat="43.761270" lon="1.505961">
        <ele>195.2</ele>
        <time>2014-03-11T15:44:23Z</time>
      </trkpt>
      <trkpt lat="43.761199" lon="1.506040">
        <ele>195.2</ele>
        <time>2014-03-11T15:44:31Z</time>
      </trkpt>
      <trkpt lat="43.761140" lon="1.506132">
        <ele>195.2</ele>
        <time>2014-03-11T15:44:38Z</time>
      </trkpt>
      <trkpt lat="43.761067" lon="1.506211">
        <ele>195.4</ele>
        <time>2014-03-11T15:44:46Z</time>
      </trkpt>
      <trkpt lat="43.760997" lon="1.506305">
        <ele>195.7</ele>
        <time>2014-03-11T15:44:54Z</time>
      </trkpt>
      <trkpt lat="43.760922" lon="1.506387">
        <ele>196.1</ele>
        <time>2014-03-11T15:45:02Z</time>
      </trkpt>
      <trkpt lat="43.760855" lon="1.506471">
        <ele>196.5</ele>
        <time>2014-03-11T15:45:10Z</time>
      </trkpt>
      <trkpt lat="43.760786" lon="1.506552">
        <ele>197.2</ele>
        <time>2014-03-11T15:45:19Z</time>
      </trkpt>
      <trkpt lat="43.760715" lon="1.506627">
        <ele>197.2</ele>
        <time>2014-03-11T15:45:27Z</time>
      </trkpt>
      <trkpt lat="43.760641" lon="1.506718">
        <ele>197.2</ele>
        <time>2014-03-11T15:45:36Z</time>
      </trkpt>
      <trkpt lat="43.760557" lon="1.506805">
        <ele>197.4</ele>
        <time>2014-03-11T15:45:44Z</time>
      </trkpt>
      <trkpt lat="43.760509" lon="1.506903">
        <ele>197.0</ele>
        <time>2014-03-11T15:45:52Z</time>
        <name>Lacour</name>
      </trkpt>
      <trkpt lat="43.760586" lon="1.506985">
        <ele>196.3</ele>
        <time>2014-03-11T15:46:07Z</time>
      </trkpt>
      <trkpt lat="43.760695" lon="1.507047">
        <ele>195.2</ele>
        <time>2014-03-11T15:46:18Z</time>
      </trkpt>
      <trkpt lat="43.760787" lon="1.507097">
        <ele>194.1</ele>
        <time>2014-03-11T15:46:28Z</time>
      </trkpt>
      <trkpt lat="43.760895" lon="1.507142">
        <ele>193.1</ele>
        <time>2014-03-11T15:46:36Z</time>
      </trkpt>
      <trkpt lat="43.760989" lon="1.507179">
        <ele>192.0</ele>
        <time>2014-03-11T15:46:45Z</time>
      </trkpt>
      <trkpt lat="43.761088" lon="1.507217">
        <ele>190.5</ele>
        <time>2014-03-11T15:46:55Z</time>
      </trkpt>
      <trkpt lat="43.761188" lon="1.507250">
        <ele>189.0</ele>
        <time>2014-03-11T15:47:04Z</time>
      </trkpt>
      <trkpt lat="43.761276" lon="1.507282">
        <ele>188.3</ele>
        <time>2014-03-11T15:47:12Z</time>
      </trkpt>
      <trkpt lat="43.761365" lon="1.507306">
        <ele>187.6</ele>
        <time>2014-03-11T15:47:19Z</time>
      </trkpt>
      <trkpt lat="43.761457" lon="1.507264">
        <ele>186.8</ele>
        <time>2014-03-11T15:47:28Z</time>
      </trkpt>
      <trkpt lat="43.761544" lon="1.507219">
        <ele>186.5</ele>
        <time>2014-03-11T15:47:35Z</time>
      </trkpt>
      <trkpt lat="43.761631" lon="1.507163">
        <ele>186.1</ele>
        <time>2014-03-11T15:47:42Z</time>
      </trkpt>
      <trkpt lat="43.761704" lon="1.507104">
        <ele>185.7</ele>
        <time>2014-03-11T15:47:49Z</time>
      </trkpt>
      <trkpt lat="43.761796" lon="1.507051">
        <ele>185.2</ele>
        <time>2014-03-11T15:47:56Z</time>
      </trkpt>
      <trkpt lat="43.761871" lon="1.506980">
        <ele>184.5</ele>
        <time>2014-03-11T15:48:05Z</time>
      </trkpt>
      <trkpt lat="43.761956" lon="1.506934">
        <ele>183.9</ele>
        <time>2014-03-11T15:48:11Z</time>
      </trkpt>
      <trkpt lat="43.762035" lon="1.506858">
        <ele>183.3</ele>
        <time>2014-03-11T15:48:20Z</time>
      </trkpt>
      <trkpt lat="43.762119" lon="1.506817">
        <ele>183.1</ele>
        <time>2014-03-11T15:48:25Z</time>
      </trkpt>
      <trkpt lat="43.762202" lon="1.506735">
        <ele>182.5</ele>
        <time>2014-03-11T15:48:34Z</time>
      </trkpt>
      <trkpt lat="43.762294" lon="1.506673">
        <ele>182.1</ele>
        <time>2014-03-11T15:48:41Z</time>
      </trkpt>
      <trkpt lat="43.762375" lon="1.506600">
        <ele>181.9</ele>
        <time>2014-03-11T15:48:50Z</time>
      </trkpt>
      <trkpt lat="43.762457" lon="1.506549">
        <ele>181.7</ele>
        <time>2014-03-11T15:48:57Z</time>
      </trkpt>
      <trkpt lat="43.762543" lon="1.506502">
        <ele>181.0</ele>
        <time>2014-03-11T15:49:05Z</time>
      </trkpt>
      <trkpt lat="43.762625" lon="1.506453">
        <ele>180.7</ele>
        <time>2014-03-11T15:49:12Z</time>
      </trkpt>
      <trkpt lat="43.762717" lon="1.506381">
        <ele>180.3</ele>
        <time>2014-03-11T15:49:21Z</time>
      </trkpt>
      <trkpt lat="43.762813" lon="1.506304">
        <ele>179.6</ele>
        <time>2014-03-11T15:49:31Z</time>
      </trkpt>
      <trkpt lat="43.762925" lon="1.506236">
        <ele>178.8</ele>
        <time>2014-03-11T15:49:39Z</time>
      </trkpt>
      <trkpt lat="43.763016" lon="1.506166">
        <ele>178.2</ele>
        <time>2014-03-11T15:49:48Z</time>
      </trkpt>
      <trkpt lat="43.763111" lon="1.506106">
        <ele>177.5</ele>
        <time>2014-03-11T15:49:56Z</time>
      </trkpt>
      <trkpt lat="43.763205" lon="1.506072">
        <ele>177.3</ele>
        <time>2014-03-11T15:50:02Z</time>
      </trkpt>
      <trkpt lat="43.763312" lon="1.506029">
        <ele>176.5</ele>
        <time>2014-03-11T15:50:13Z</time>
      </trkpt>
      <trkpt lat="43.763431" lon="1.505968">
        <ele>176.2</ele>
        <time>2014-03-11T15:50:21Z</time>
      </trkpt>
      <trkpt lat="43.763546" lon="1.505895">
        <ele>175.9</ele>
        <time>2014-03-11T15:50:31Z</time>
      </trkpt>
      <trkpt lat="43.763650" lon="1.505823">
        <ele>175.4</ele>
        <time>2014-03-11T15:50:39Z</time>
      </trkpt>
      <trkpt lat="43.763727" lon="1.505747">
        <ele>175.1</ele>
        <time>2014-03-11T15:50:46Z</time>
      </trkpt>
      <trkpt lat="43.763804" lon="1.505662">
        <ele>174.7</ele>
        <time>2014-03-11T15:50:54Z</time>
      </trkpt>
      <trkpt lat="43.763889" lon="1.505615">
        <ele>174.7</ele>
        <time>2014-03-11T15:51:01Z</time>
      </trkpt>
      <trkpt lat="43.763959" lon="1.505517">
        <ele>174.2</ele>
        <time>2014-03-11T15:51:09Z</time>
      </trkpt>
      <trkpt lat="43.764038" lon="1.505434">
        <ele>173.6</ele>
        <time>2014-03-11T15:51:18Z</time>
      </trkpt>
      <trkpt lat="43.764120" lon="1.505361">
        <ele>173.6</ele>
        <time>2014-03-11T15:51:26Z</time>
      </trkpt>
      <trkpt lat="43.764205" lon="1.505277">
        <ele>173.4</ele>
        <time>2014-03-11T15:51:35Z</time>
      </trkpt>
      <trkpt lat="43.764283" lon="1.505202">
        <ele>172.9</ele>
        <time>2014-03-11T15:51:48Z</time>
      </trkpt>
      <trkpt lat="43.764374" lon="1.505126">
        <ele>172.6</ele>
        <time>2014-03-11T15:51:58Z</time>
      </trkpt>
      <trkpt lat="43.764477" lon="1.505060">
        <ele>172.3</ele>
        <time>2014-03-11T15:52:10Z</time>
      </trkpt>
      <trkpt lat="43.764567" lon="1.504980">
        <ele>172.1</ele>
        <time>2014-03-11T15:52:19Z</time>
      </trkpt>
      <trkpt lat="43.764657" lon="1.504924">
        <ele>171.8</ele>
        <time>2014-03-11T15:52:25Z</time>
      </trkpt>
      <trkpt lat="43.764737" lon="1.504844">
        <ele>171.3</ele>
        <time>2014-03-11T15:52:35Z</time>
      </trkpt>
      <trkpt lat="43.764821" lon="1.504762">
        <ele>170.7</ele>
        <time>2014-03-11T15:52:46Z</time>
      </trkpt>
      <trkpt lat="43.764899" lon="1.504684">
        <ele>170.2</ele>
        <time>2014-03-11T15:52:54Z</time>
      </trkpt>
      <trkpt lat="43.764968" lon="1.504611">
        <ele>168.9</ele>
        <time>2014-03-11T15:53:49Z</time>
      </trkpt>
      <trkpt lat="43.765042" lon="1.504536">
        <ele>168.7</ele>
        <time>2014-03-11T15:53:57Z</time>
      </trkpt>
      <trkpt lat="43.765118" lon="1.504455">
        <ele>168.5</ele>
        <time>2014-03-11T15:54:05Z</time>
      </trkpt>
      <trkpt lat="43.765198" lon="1.504363">
        <ele>168.1</ele>
        <time>2014-03-11T15:54:14Z</time>
      </trkpt>
      <trkpt lat="43.765286" lon="1.504288">
        <ele>167.7</ele>
        <time>2014-03-11T15:54:22Z</time>
      </trkpt>
      <trkpt lat="43.765367" lon="1.504189">
        <ele>167.1</ele>
        <time>2014-03-11T15:54:31Z</time>
      </trkpt>
      <trkpt lat="43.765443" lon="1.504116">
        <ele>166.6</ele>
        <time>2014-03-11T15:54:39Z</time>
      </trkpt>
      <trkpt lat="43.765523" lon="1.504039">
        <ele>166.1</ele>
        <time>2014-03-11T15:54:46Z</time>
      </trkpt>
      <trkpt lat="43.765598" lon="1.503946">
        <ele>165.4</ele>
        <time>2014-03-11T15:54:55Z</time>
      </trkpt>
      <trkpt lat="43.765682" lon="1.503877">
        <ele>165.1</ele>
        <time>2014-03-11T15:55:02Z</time>
      </trkpt>
      <trkpt lat="43.765762" lon="1.503793">
        <ele>164.9</ele>
        <time>2014-03-11T15:55:11Z</time>
      </trkpt>
      <trkpt lat="43.765848" lon="1.503740">
        <ele>164.5</ele>
        <time>2014-03-11T15:55:18Z</time>
      </trkpt>
      <trkpt lat="43.765929" lon="1.503672">
        <ele>164.0</ele>
        <time>2014-03-11T15:55:26Z</time>
      </trkpt>
      <trkpt lat="43.766024" lon="1.503601">
        <ele>163.8</ele>
        <time>2014-03-11T15:55:33Z</time>
      </trkpt>
      <trkpt lat="43.766118" lon="1.503533">
        <ele>163.4</ele>
        <time>2014-03-11T15:55:42Z</time>
      </trkpt>
      <trkpt lat="43.766207" lon="1.503500">
        <ele>163.2</ele>
        <time>2014-03-11T15:55:48Z</time>
      </trkpt>
      <trkpt lat="43.766311" lon="1.503469">
        <ele>163.1</ele>
        <time>2014-03-11T15:55:57Z</time>
      </trkpt>
      <trkpt lat="43.766413" lon="1.503491">
        <ele>163.1</ele>
        <time>2014-03-11T15:56:11Z</time>
      </trkpt>
      <trkpt lat="43.766505" lon="1.503553">
        <ele>162.9</ele>
        <time>2014-03-11T15:56:20Z</time>
      </trkpt>
      <trkpt lat="43.766600" lon="1.503518">
        <ele>162.9</ele>
        <time>2014-03-11T15:56:29Z</time>
      </trkpt>
      <trkpt lat="43.766683" lon="1.503445">
        <ele>162.9</ele>
        <time>2014-03-11T15:56:37Z</time>
      </trkpt>
      <trkpt lat="43.766774" lon="1.503368">
        <ele>162.8</ele>
        <time>2014-03-11T15:56:45Z</time>
      </trkpt>
      <trkpt lat="43.766855" lon="1.503290">
        <ele>162.2</ele>
        <time>2014-03-11T15:56:53Z</time>
      </trkpt>
      <trkpt lat="43.766929" lon="1.503200">
        <ele>162.0</ele>
        <time>2014-03-11T15:57:01Z</time>
      </trkpt>
      <trkpt lat="43.767008" lon="1.503092">
        <ele>161.9</ele>
        <time>2014-03-11T15:57:10Z</time>
      </trkpt>
      <trkpt lat="43.767083" lon="1.503031">
        <ele>161.6</ele>
        <time>2014-03-11T15:57:16Z</time>
      </trkpt>
      <trkpt lat="43.767166" lon="1.502933">
        <ele>161.4</ele>
        <time>2014-03-11T15:57:25Z</time>
      </trkpt>
      <trkpt lat="43.767241" lon="1.502848">
        <ele>161.3</ele>
        <time>2014-03-11T15:57:32Z</time>
      </trkpt>
      <trkpt lat="43.767318" lon="1.502765">
        <ele>161.1</ele>
        <time>2014-03-11T15:57:40Z</time>
      </trkpt>
      <trkpt lat="43.767389" lon="1.502668">
        <ele>161.0</ele>
        <time>2014-03-11T15:57:48Z</time>
      </trkpt>
      <trkpt lat="43.767467" lon="1.502614">
        <ele>160.9</ele>
        <time>2014-03-11T15:57:54Z</time>
      </trkpt>
      <trkpt lat="43.767540" lon="1.502534">
        <ele>160.9</ele>
        <time>2014-03-11T15:58:02Z</time>
      </trkpt>
      <trkpt lat="43.767618" lon="1.502468">
        <ele>160.5</ele>
        <time>2014-03-11T15:58:09Z</time>
      </trkpt>
      <trkpt lat="43.767705" lon="1.502400">
        <ele>160.3</ele>
        <time>2014-03-11T15:58:17Z</time>
      </trkpt>
      <trkpt lat="43.767793" lon="1.502354">
        <ele>160.1</ele>
        <time>2014-03-11T15:58:25Z</time>
      </trkpt>
      <trkpt lat="43.767895" lon="1.502343">
        <ele>159.9</ele>
        <time>2014-03-11T15:58:32Z</time>
      </trkpt>
      <trkpt lat="43.767999" lon="1.502309">
        <ele>159.8</ele>
        <time>2014-03-11T15:58:41Z</time>
      </trkpt>
      <trkpt lat="43.768099" lon="1.502294">
        <ele>159.8</ele>
        <time>2014-03-11T15:58:48Z</time>
      </trkpt>
      <trkpt lat="43.768189" lon="1.502278">
        <ele>159.5</ele>
        <time>2014-03-11T15:58:56Z</time>
      </trkpt>
      <trkpt lat="43.768286" lon="1.502258">
        <ele>159.4</ele>
        <time>2014-03-11T15:59:04Z</time>
      </trkpt>
      <trkpt lat="43.768384" lon="1.502259">
        <ele>159.2</ele>
        <time>2014-03-11T15:59:11Z</time>
      </trkpt>
      <trkpt lat="43.768473" lon="1.502238">
        <ele>159.1</ele>
        <time>2014-03-11T15:59:19Z</time>
      </trkpt>
      <trkpt lat="43.768570" lon="1.502244">
        <ele>159.1</ele>
        <time>2014-03-11T15:59:27Z</time>
      </trkpt>
      <trkpt lat="43.768660" lon="1.502216">
        <ele>159.1</ele>
        <time>2014-03-11T15:59:34Z</time>
      </trkpt>
      <trkpt lat="43.768755" lon="1.502213">
        <ele>158.9</ele>
        <time>2014-03-11T15:59:43Z</time>
      </trkpt>
      <trkpt lat="43.768843" lon="1.502245">
        <ele>158.8</ele>
        <time>2014-03-11T15:59:51Z</time>
      </trkpt>
      <trkpt lat="43.768923" lon="1.502282">
        <ele>158.8</ele>
        <time>2014-03-11T15:59:59Z</time>
      </trkpt>
      <trkpt lat="43.769009" lon="1.502333">
        <ele>159.0</ele>
        <time>2014-03-11T16:00:07Z</time>
      </trkpt>
      <trkpt lat="43.769096" lon="1.502396">
        <ele>159.5</ele>
        <time>2014-03-11T16:00:16Z</time>
      </trkpt>
      <trkpt lat="43.769191" lon="1.502448">
        <ele>159.9</ele>
        <time>2014-03-11T16:00:25Z</time>
      </trkpt>
      <trkpt lat="43.769279" lon="1.502514">
        <ele>160.4</ele>
        <time>2014-03-11T16:00:34Z</time>
      </trkpt>
      <trkpt lat="43.769362" lon="1.502579">
        <ele>161.5</ele>
        <time>2014-03-11T16:00:44Z</time>
      </trkpt>
      <trkpt lat="43.769455" lon="1.502644">
        <ele>163.2</ele>
        <time>2014-03-11T16:00:55Z</time>
      </trkpt>
      <trkpt lat="43.769548" lon="1.502705">
        <ele>164.9</ele>
        <time>2014-03-11T16:01:07Z</time>
      </trkpt>
      <trkpt lat="43.769634" lon="1.502751">
        <ele>166.9</ele>
        <time>2014-03-11T16:01:19Z</time>
      </trkpt>
      <trkpt lat="43.769717" lon="1.502793">
        <ele>169.7</ele>
        <time>2014-03-11T16:01:33Z</time>
      </trkpt>
      <trkpt lat="43.769807" lon="1.502832">
        <ele>172.4</ele>
        <time>2014-03-11T16:01:47Z</time>
      </trkpt>
      <trkpt lat="43.769910" lon="1.502894">
        <ele>174.6</ele>
        <time>2014-03-11T16:02:00Z</time>
      </trkpt>
      <trkpt lat="43.769997" lon="1.502945">
        <ele>176.2</ele>
        <time>2014-03-11T16:02:12Z</time>
      </trkpt>
      <trkpt lat="43.770085" lon="1.502995">
        <ele>178.1</ele>
        <time>2014-03-11T16:02:24Z</time>
      </trkpt>
      <trkpt lat="43.770173" lon="1.503042">
        <ele>180.3</ele>
        <time>2014-03-11T16:02:35Z</time>
      </trkpt>
      <trkpt lat="43.770215" lon="1.503102">
        <ele>182.5</ele>
        <time>2014-03-11T16:03:12Z</time>
      </trkpt>
      <trkpt lat="43.770303" lon="1.503130">
        <ele>183.1</ele>
        <time>2014-03-11T16:03:21Z</time>
      </trkpt>
      <trkpt lat="43.770389" lon="1.503137">
        <ele>184.2</ele>
        <time>2014-03-11T16:03:32Z</time>
      </trkpt>
      <trkpt lat="43.770352" lon="1.503252">
        <ele>184.8</ele>
        <time>2014-03-11T16:03:44Z</time>
      </trkpt>
      <trkpt lat="43.770296" lon="1.503370">
        <ele>184.7</ele>
        <time>2014-03-11T16:03:56Z</time>
      </trkpt>
      <trkpt lat="43.770225" lon="1.503458">
        <ele>184.4</ele>
        <time>2014-03-11T16:04:06Z</time>
      </trkpt>
      <trkpt lat="43.770179" lon="1.503570">
        <ele>184.3</ele>
        <time>2014-03-11T16:04:16Z</time>
      </trkpt>
      <trkpt lat="43.770128" lon="1.503687">
        <ele>184.4</ele>
        <time>2014-03-11T16:04:26Z</time>
      </trkpt>
      <trkpt lat="43.770085" lon="1.503809">
        <ele>184.6</ele>
        <time>2014-03-11T16:04:35Z</time>
      </trkpt>
      <trkpt lat="43.770040" lon="1.503915">
        <ele>184.6</ele>
        <time>2014-03-11T16:04:43Z</time>
      </trkpt>
      <trkpt lat="43.770000" lon="1.504026">
        <ele>184.6</ele>
        <time>2014-03-11T16:04:51Z</time>
      </trkpt>
      <trkpt lat="43.769946" lon="1.504147">
        <ele>184.6</ele>
        <time>2014-03-11T16:05:00Z</time>
      </trkpt>
      <trkpt lat="43.769892" lon="1.504253">
        <ele>184.8</ele>
        <time>2014-03-11T16:05:08Z</time>
      </trkpt>
      <trkpt lat="43.769836" lon="1.504366">
        <ele>185.0</ele>
        <time>2014-03-11T16:05:17Z</time>
      </trkpt>
      <trkpt lat="43.769789" lon="1.504480">
        <ele>185.2</ele>
        <time>2014-03-11T16:05:25Z</time>
      </trkpt>
      <trkpt lat="43.769736" lon="1.504595">
        <ele>185.3</ele>
        <time>2014-03-11T16:05:33Z</time>
      </trkpt>
      <trkpt lat="43.769688" lon="1.504705">
        <ele>185.4</ele>
        <time>2014-03-11T16:05:41Z</time>
      </trkpt>
      <trkpt lat="43.769638" lon="1.504808">
        <ele>185.4</ele>
        <time>2014-03-11T16:05:49Z</time>
      </trkpt>
      <trkpt lat="43.769597" lon="1.504918">
        <ele>185.3</ele>
        <time>2014-03-11T16:05:57Z</time>
      </trkpt>
      <trkpt lat="43.769560" lon="1.505031">
        <ele>185.4</ele>
        <time>2014-03-11T16:06:05Z</time>
      </trkpt>
      <trkpt lat="43.769523" lon="1.505144">
        <ele>185.4</ele>
        <time>2014-03-11T16:06:13Z</time>
      </trkpt>
      <trkpt lat="43.769482" lon="1.505262">
        <ele>185.5</ele>
        <time>2014-03-11T16:06:21Z</time>
      </trkpt>
      <trkpt lat="43.769440" lon="1.505372">
        <ele>185.6</ele>
        <time>2014-03-11T16:06:29Z</time>
      </trkpt>
      <trkpt lat="43.769409" lon="1.505486">
        <ele>185.7</ele>
        <time>2014-03-11T16:06:37Z</time>
      </trkpt>
      <trkpt lat="43.769370" lon="1.505601">
        <ele>185.7</ele>
        <time>2014-03-11T16:06:45Z</time>
      </trkpt>
      <trkpt lat="43.769333" lon="1.505716">
        <ele>185.8</ele>
        <time>2014-03-11T16:06:53Z</time>
      </trkpt>
      <trkpt lat="43.769291" lon="1.505841">
        <ele>185.8</ele>
        <time>2014-03-11T16:07:02Z</time>
      </trkpt>
      <trkpt lat="43.769242" lon="1.505960">
        <ele>185.8</ele>
        <time>2014-03-11T16:07:11Z</time>
      </trkpt>
      <trkpt lat="43.769193" lon="1.506085">
        <ele>185.8</ele>
        <time>2014-03-11T16:07:20Z</time>
      </trkpt>
      <trkpt lat="43.769132" lon="1.506203">
        <ele>185.8</ele>
        <time>2014-03-11T16:07:28Z</time>
      </trkpt>
      <trkpt lat="43.769090" lon="1.506314">
        <ele>185.8</ele>
        <time>2014-03-11T16:07:36Z</time>
      </trkpt>
      <trkpt lat="43.769035" lon="1.506432">
        <ele>185.9</ele>
        <time>2014-03-11T16:07:44Z</time>
      </trkpt>
      <trkpt lat="43.768978" lon="1.506535">
        <ele>185.9</ele>
        <time>2014-03-11T16:07:52Z</time>
      </trkpt>
      <trkpt lat="43.768927" lon="1.506645">
        <ele>186.0</ele>
        <time>2014-03-11T16:08:00Z</time>
      </trkpt>
      <trkpt lat="43.768882" lon="1.506768">
        <ele>186.0</ele>
        <time>2014-03-11T16:08:08Z</time>
      </trkpt>
      <trkpt lat="43.768847" lon="1.506884">
        <ele>185.8</ele>
        <time>2014-03-11T16:08:16Z</time>
      </trkpt>
      <trkpt lat="43.768823" lon="1.507000">
        <ele>185.5</ele>
        <time>2014-03-11T16:08:22Z</time>
      </trkpt>
      <trkpt lat="43.768813" lon="1.507125">
        <ele>185.1</ele>
        <time>2014-03-11T16:08:31Z</time>
      </trkpt>
      <trkpt lat="43.768810" lon="1.507259">
        <ele>184.7</ele>
        <time>2014-03-11T16:08:40Z</time>
      </trkpt>
      <trkpt lat="43.768797" lon="1.507384">
        <ele>184.5</ele>
        <time>2014-03-11T16:08:46Z</time>
      </trkpt>
      <trkpt lat="43.768801" lon="1.507516">
        <ele>183.9</ele>
        <time>2014-03-11T16:08:55Z</time>
      </trkpt>
      <trkpt lat="43.768789" lon="1.507639">
        <ele>183.6</ele>
        <time>2014-03-11T16:09:02Z</time>
      </trkpt>
      <trkpt lat="43.768791" lon="1.507769">
        <ele>183.5</ele>
        <time>2014-03-11T16:09:10Z</time>
      </trkpt>
      <trkpt lat="43.768795" lon="1.507903">
        <ele>183.5</ele>
        <time>2014-03-11T16:09:18Z</time>
      </trkpt>
      <trkpt lat="43.768798" lon="1.508032">
        <ele>183.6</ele>
        <time>2014-03-11T16:09:25Z</time>
      </trkpt>
      <trkpt lat="43.768790" lon="1.508161">
        <ele>183.8</ele>
        <time>2014-03-11T16:09:33Z</time>
      </trkpt>
      <trkpt lat="43.768788" lon="1.508286">
        <ele>183.9</ele>
        <time>2014-03-11T16:09:40Z</time>
      </trkpt>
      <trkpt lat="43.768762" lon="1.508417">
        <ele>184.1</ele>
        <time>2014-03-11T16:09:48Z</time>
      </trkpt>
      <trkpt lat="43.768729" lon="1.508549">
        <ele>184.3</ele>
        <time>2014-03-11T16:09:56Z</time>
      </trkpt>
      <trkpt lat="43.768671" lon="1.508663">
        <ele>184.3</ele>
        <time>2014-03-11T16:10:04Z</time>
      </trkpt>
      <trkpt lat="43.768624" lon="1.508777">
        <ele>184.6</ele>
        <time>2014-03-11T16:10:12Z</time>
      </trkpt>
      <trkpt lat="43.768542" lon="1.508880">
        <ele>184.9</ele>
        <time>2014-03-11T16:10:19Z</time>
      </trkpt>
      <trkpt lat="43.768500" lon="1.508995">
        <ele>185.3</ele>
        <time>2014-03-11T16:10:26Z</time>
      </trkpt>
      <trkpt lat="43.768476" lon="1.509124">
        <ele>185.6</ele>
        <time>2014-03-11T16:10:34Z</time>
      </trkpt>
      <trkpt lat="43.768453" lon="1.509248">
        <ele>185.9</ele>
        <time>2014-03-11T16:10:41Z</time>
      </trkpt>
      <trkpt lat="43.768434" lon="1.509401">
        <ele>186.1</ele>
        <time>2014-03-11T16:10:49Z</time>
      </trkpt>
      <trkpt lat="43.768433" lon="1.509525">
        <ele>186.4</ele>
        <time>2014-03-11T16:10:57Z</time>
      </trkpt>
      <trkpt lat="43.768445" lon="1.509667">
        <ele>186.7</ele>
        <time>2014-03-11T16:11:04Z</time>
      </trkpt>
      <trkpt lat="43.768458" lon="1.509778">
        <ele>187.2</ele>
        <time>2014-03-11T16:11:11Z</time>
      </trkpt>
      <trkpt lat="43.768429" lon="1.509922">
        <ele>187.6</ele>
        <time>2014-03-11T16:11:19Z</time>
      </trkpt>
      <trkpt lat="43.768414" lon="1.510062">
        <ele>187.7</ele>
        <time>2014-03-11T16:11:25Z</time>
      </trkpt>
      <trkpt lat="43.768403" lon="1.510172">
        <ele>188.0</ele>
        <time>2014-03-11T16:11:32Z</time>
      </trkpt>
      <trkpt lat="43.768388" lon="1.510306">
        <ele>188.5</ele>
        <time>2014-03-11T16:11:40Z</time>
      </trkpt>
      <trkpt lat="43.768365" lon="1.510424">
        <ele>188.8</ele>
        <time>2014-03-11T16:11:46Z</time>
      </trkpt>
      <trkpt lat="43.768331" lon="1.510547">
        <ele>189.2</ele>
        <time>2014-03-11T16:11:54Z</time>
      </trkpt>
      <trkpt lat="43.768299" lon="1.510662">
        <ele>189.6</ele>
        <time>2014-03-11T16:12:00Z</time>
      </trkpt>
      <trkpt lat="43.768272" lon="1.510776">
        <ele>190.0</ele>
        <time>2014-03-11T16:12:06Z</time>
      </trkpt>
      <trkpt lat="43.768253" lon="1.510898">
        <ele>190.5</ele>
        <time>2014-03-11T16:12:14Z</time>
      </trkpt>
      <trkpt lat="43.768251" lon="1.511031">
        <ele>191.1</ele>
        <time>2014-03-11T16:12:21Z</time>
      </trkpt>
      <trkpt lat="43.768306" lon="1.511142">
        <ele>191.8</ele>
        <time>2014-03-11T16:12:28Z</time>
      </trkpt>
      <trkpt lat="43.768376" lon="1.511227">
        <ele>192.3</ele>
        <time>2014-03-11T16:12:35Z</time>
      </trkpt>
      <trkpt lat="43.768444" lon="1.511312">
        <ele>192.7</ele>
        <time>2014-03-11T16:12:43Z</time>
      </trkpt>
      <trkpt lat="43.768520" lon="1.511392">
        <ele>193.0</ele>
        <time>2014-03-11T16:12:50Z</time>
      </trkpt>
      <trkpt lat="43.768599" lon="1.511483">
        <ele>193.1</ele>
        <time>2014-03-11T16:12:57Z</time>
      </trkpt>
      <trkpt lat="43.768638" lon="1.511584">
        <ele>193.4</ele>
        <time>2014-03-11T16:13:05Z</time>
      </trkpt>
      <trkpt lat="43.768687" lon="1.511701">
        <ele>193.6</ele>
        <time>2014-03-11T16:13:13Z</time>
      </trkpt>
      <trkpt lat="43.768710" lon="1.511820">
        <ele>194.3</ele>
        <time>2014-03-11T16:13:20Z</time>
      </trkpt>
      <trkpt lat="43.768744" lon="1.511942">
        <ele>194.7</ele>
        <time>2014-03-11T16:13:27Z</time>
      </trkpt>
      <trkpt lat="43.768761" lon="1.512067">
        <ele>195.0</ele>
        <time>2014-03-11T16:13:34Z</time>
      </trkpt>
      <trkpt lat="43.768795" lon="1.512184">
        <ele>195.4</ele>
        <time>2014-03-11T16:13:41Z</time>
      </trkpt>
      <trkpt lat="43.768824" lon="1.512313">
        <ele>196.1</ele>
        <time>2014-03-11T16:13:49Z</time>
      </trkpt>
      <trkpt lat="43.768860" lon="1.512444">
        <ele>197.1</ele>
        <time>2014-03-11T16:13:58Z</time>
      </trkpt>
      <trkpt lat="43.768869" lon="1.512590">
        <ele>197.6</ele>
        <time>2014-03-11T16:14:05Z</time>
      </trkpt>
      <trkpt lat="43.768932" lon="1.512725">
        <ele>198.1</ele>
        <time>2014-03-11T16:14:14Z</time>
        <name>Corondel</name>
      </trkpt>
      <trkpt lat="43.768966" lon="1.512812">
        <ele>198.7</ele>
        <time>2014-03-11T16:14:26Z</time>
      </trkpt>
      <trkpt lat="43.769052" lon="1.512758">
        <ele>199.1</ele>
        <time>2014-03-11T16:14:37Z</time>
      </trkpt>
      <trkpt lat="43.769109" lon="1.512640">
        <ele>199.5</ele>
        <time>2014-03-11T16:14:49Z</time>
      </trkpt>
      <trkpt lat="43.769175" lon="1.512543">
        <ele>199.5</ele>
        <time>2014-03-11T16:14:56Z</time>
      </trkpt>
      <trkpt lat="43.769236" lon="1.512448">
        <ele>199.3</ele>
        <time>2014-03-11T16:15:05Z</time>
      </trkpt>
      <trkpt lat="43.769314" lon="1.512343">
        <ele>199.2</ele>
        <time>2014-03-11T16:15:15Z</time>
      </trkpt>
      <trkpt lat="43.769392" lon="1.512243">
        <ele>199.1</ele>
        <time>2014-03-11T16:15:23Z</time>
      </trkpt>
      <trkpt lat="43.769473" lon="1.512153">
        <ele>198.9</ele>
        <time>2014-03-11T16:15:32Z</time>
      </trkpt>
      <trkpt lat="43.769551" lon="1.512052">
        <ele>198.9</ele>
        <time>2014-03-11T16:15:40Z</time>
      </trkpt>
      <trkpt lat="43.769622" lon="1.511947">
        <ele>199.1</ele>
        <time>2014-03-11T16:15:48Z</time>
      </trkpt>
      <trkpt lat="43.769692" lon="1.511835">
        <ele>199.0</ele>
        <time>2014-03-11T16:15:57Z</time>
      </trkpt>
      <trkpt lat="43.769758" lon="1.511731">
        <ele>198.8</ele>
        <time>2014-03-11T16:16:04Z</time>
      </trkpt>
      <trkpt lat="43.769825" lon="1.511643">
        <ele>198.6</ele>
        <time>2014-03-11T16:16:11Z</time>
      </trkpt>
      <trkpt lat="43.769898" lon="1.511549">
        <ele>198.7</ele>
        <time>2014-03-11T16:16:20Z</time>
      </trkpt>
      <trkpt lat="43.769968" lon="1.511462">
        <ele>198.8</ele>
        <time>2014-03-11T16:16:27Z</time>
      </trkpt>
      <trkpt lat="43.770048" lon="1.511386">
        <ele>198.6</ele>
        <time>2014-03-11T16:16:35Z</time>
      </trkpt>
      <trkpt lat="43.770128" lon="1.511323">
        <ele>198.7</ele>
        <time>2014-03-11T16:16:43Z</time>
      </trkpt>
      <trkpt lat="43.770221" lon="1.511298">
        <ele>198.4</ele>
        <time>2014-03-11T16:16:51Z</time>
      </trkpt>
      <trkpt lat="43.770318" lon="1.511250">
        <ele>198.5</ele>
        <time>2014-03-11T16:16:59Z</time>
      </trkpt>
      <trkpt lat="43.770410" lon="1.511188">
        <ele>198.8</ele>
        <time>2014-03-11T16:17:09Z</time>
      </trkpt>
      <trkpt lat="43.770487" lon="1.511100">
        <ele>198.5</ele>
        <time>2014-03-11T16:17:17Z</time>
      </trkpt>
      <trkpt lat="43.770570" lon="1.511009">
        <ele>198.1</ele>
        <time>2014-03-11T16:17:26Z</time>
      </trkpt>
      <trkpt lat="43.770643" lon="1.510912">
        <ele>197.9</ele>
        <time>2014-03-11T16:17:36Z</time>
      </trkpt>
      <trkpt lat="43.770746" lon="1.510823">
        <ele>197.7</ele>
        <time>2014-03-11T16:17:47Z</time>
      </trkpt>
      <trkpt lat="43.770829" lon="1.510730">
        <ele>197.6</ele>
        <time>2014-03-11T16:17:56Z</time>
      </trkpt>
      <trkpt lat="43.770884" lon="1.510619">
        <ele>197.1</ele>
        <time>2014-03-11T16:18:05Z</time>
      </trkpt>
      <trkpt lat="43.770858" lon="1.510484">
        <ele>196.9</ele>
        <time>2014-03-11T16:18:15Z</time>
      </trkpt>
      <trkpt lat="43.770850" lon="1.510458">
        <ele>196.7</ele>
        <time>2014-03-11T16:18:51Z</time>
      </trkpt>
      <trkpt lat="43.770809" lon="1.510337">
        <ele>196.7</ele>
        <time>2014-03-11T16:19:00Z</time>
      </trkpt>
      <trkpt lat="43.770776" lon="1.510212">
        <ele>196.1</ele>
        <time>2014-03-11T16:19:08Z</time>
      </trkpt>
      <trkpt lat="43.770773" lon="1.510067">
        <ele>195.3</ele>
        <time>2014-03-11T16:19:18Z</time>
      </trkpt>
      <trkpt lat="43.770801" lon="1.509917">
        <ele>194.4</ele>
        <time>2014-03-11T16:19:27Z</time>
      </trkpt>
      <trkpt lat="43.770823" lon="1.509777">
        <ele>193.8</ele>
        <time>2014-03-11T16:19:33Z</time>
      </trkpt>
      <trkpt lat="43.770833" lon="1.509658">
        <ele>193.3</ele>
        <time>2014-03-11T16:19:39Z</time>
      </trkpt>
      <trkpt lat="43.770867" lon="1.509537">
        <ele>192.6</ele>
        <time>2014-03-11T16:19:47Z</time>
      </trkpt>
      <trkpt lat="43.770890" lon="1.509413">
        <ele>191.9</ele>
        <time>2014-03-11T16:19:54Z</time>
      </trkpt>
      <trkpt lat="43.770905" lon="1.509271">
        <ele>191.3</ele>
        <time>2014-03-11T16:20:03Z</time>
      </trkpt>
      <trkpt lat="43.770929" lon="1.509137">
        <ele>190.6</ele>
        <time>2014-03-11T16:20:11Z</time>
      </trkpt>
      <trkpt lat="43.770947" lon="1.508990">
        <ele>189.6</ele>
        <time>2014-03-11T16:20:20Z</time>
      </trkpt>
      <trkpt lat="43.771002" lon="1.508879">
        <ele>188.7</ele>
        <time>2014-03-11T16:20:29Z</time>
      </trkpt>
      <trkpt lat="43.771056" lon="1.508743">
        <ele>188.1</ele>
        <time>2014-03-11T16:20:39Z</time>
      </trkpt>
      <trkpt lat="43.771113" lon="1.508622">
        <ele>187.9</ele>
        <time>2014-03-11T16:20:47Z</time>
      </trkpt>
      <trkpt lat="43.771177" lon="1.508493">
        <ele>187.7</ele>
        <time>2014-03-11T16:20:56Z</time>
      </trkpt>
      <trkpt lat="43.771243" lon="1.508387">
        <ele>188.1</ele>
        <time>2014-03-11T16:21:04Z</time>
      </trkpt>
      <trkpt lat="43.771315" lon="1.508304">
        <ele>188.6</ele>
        <time>2014-03-11T16:21:12Z</time>
      </trkpt>
      <trkpt lat="43.771394" lon="1.508224">
        <ele>188.9</ele>
        <time>2014-03-11T16:21:20Z</time>
      </trkpt>
      <trkpt lat="43.771467" lon="1.508139">
        <ele>189.1</ele>
        <time>2014-03-11T16:21:30Z</time>
      </trkpt>
      <trkpt lat="43.771541" lon="1.508049">
        <ele>189.2</ele>
        <time>2014-03-11T16:21:38Z</time>
      </trkpt>
      <trkpt lat="43.771619" lon="1.507968">
        <ele>189.3</ele>
        <time>2014-03-11T16:21:46Z</time>
      </trkpt>
      <trkpt lat="43.771701" lon="1.507913">
        <ele>189.3</ele>
        <time>2014-03-11T16:21:53Z</time>
      </trkpt>
      <trkpt lat="43.771785" lon="1.507830">
        <ele>189.3</ele>
        <time>2014-03-11T16:22:02Z</time>
      </trkpt>
      <trkpt lat="43.771861" lon="1.507754">
        <ele>189.4</ele>
        <time>2014-03-11T16:22:10Z</time>
      </trkpt>
      <trkpt lat="43.771941" lon="1.507688">
        <ele>189.6</ele>
        <time>2014-03-11T16:22:16Z</time>
      </trkpt>
      <trkpt lat="43.772026" lon="1.507611">
        <ele>189.6</ele>
        <time>2014-03-11T16:22:24Z</time>
      </trkpt>
      <trkpt lat="43.772125" lon="1.507581">
        <ele>189.6</ele>
        <time>2014-03-11T16:22:31Z</time>
      </trkpt>
      <trkpt lat="43.772203" lon="1.507547">
        <ele>189.5</ele>
        <time>2014-03-11T16:22:38Z</time>
      </trkpt>
      <trkpt lat="43.772292" lon="1.507500">
        <ele>189.5</ele>
        <time>2014-03-11T16:22:45Z</time>
      </trkpt>
      <trkpt lat="43.772381" lon="1.507458">
        <ele>189.6</ele>
        <time>2014-03-11T16:22:51Z</time>
      </trkpt>
      <trkpt lat="43.772467" lon="1.507393">
        <ele>189.6</ele>
        <time>2014-03-11T16:22:59Z</time>
      </trkpt>
      <trkpt lat="43.772563" lon="1.507370">
        <ele>189.8</ele>
        <time>2014-03-11T16:23:05Z</time>
      </trkpt>
      <trkpt lat="43.772649" lon="1.507343">
        <ele>190.0</ele>
        <time>2014-03-11T16:23:10Z</time>
      </trkpt>
      <trkpt lat="43.772726" lon="1.507285">
        <ele>190.4</ele>
        <time>2014-03-11T16:23:19Z</time>
      </trkpt>
      <trkpt lat="43.772812" lon="1.507249">
        <ele>190.7</ele>
        <time>2014-03-11T16:23:25Z</time>
      </trkpt>
      <trkpt lat="43.772897" lon="1.507218">
        <ele>190.5</ele>
        <time>2014-03-11T16:23:33Z</time>
      </trkpt>
      <trkpt lat="43.772965" lon="1.507143">
        <ele>189.9</ele>
        <time>2014-03-11T16:23:41Z</time>
      </trkpt>
      <trkpt lat="43.773025" lon="1.507060">
        <ele>189.6</ele>
        <time>2014-03-11T16:23:48Z</time>
      </trkpt>
      <trkpt lat="43.773092" lon="1.506958">
        <ele>189.2</ele>
        <time>2014-03-11T16:23:56Z</time>
      </trkpt>
      <trkpt lat="43.773145" lon="1.506841">
        <ele>188.9</ele>
        <time>2014-03-11T16:24:03Z</time>
      </trkpt>
      <trkpt lat="43.773196" lon="1.506738">
        <ele>188.5</ele>
        <time>2014-03-11T16:24:09Z</time>
      </trkpt>
      <trkpt lat="43.773232" lon="1.506617">
        <ele>188.0</ele>
        <time>2014-03-11T16:24:17Z</time>
      </trkpt>
      <trkpt lat="43.773306" lon="1.506511">
        <ele>187.7</ele>
        <time>2014-03-11T16:24:24Z</time>
      </trkpt>
      <trkpt lat="43.773346" lon="1.506397">
        <ele>187.4</ele>
        <time>2014-03-11T16:24:32Z</time>
      </trkpt>
      <trkpt lat="43.773397" lon="1.506282">
        <ele>186.6</ele>
        <time>2014-03-11T16:24:39Z</time>
      </trkpt>
      <trkpt lat="43.773460" lon="1.506184">
        <ele>186.4</ele>
        <time>2014-03-11T16:24:45Z</time>
      </trkpt>
      <trkpt lat="43.773525" lon="1.506086">
        <ele>186.0</ele>
        <time>2014-03-11T16:24:54Z</time>
      </trkpt>
      <trkpt lat="43.773590" lon="1.505997">
        <ele>185.6</ele>
        <time>2014-03-11T16:25:00Z</time>
      </trkpt>
      <trkpt lat="43.773656" lon="1.505907">
        <ele>185.5</ele>
        <time>2014-03-11T16:25:06Z</time>
      </trkpt>
      <trkpt lat="43.773719" lon="1.505793">
        <ele>185.3</ele>
        <time>2014-03-11T16:25:15Z</time>
      </trkpt>
      <trkpt lat="43.773801" lon="1.505709">
        <ele>184.9</ele>
        <time>2014-03-11T16:25:22Z</time>
      </trkpt>
      <trkpt lat="43.773868" lon="1.505601">
        <ele>184.5</ele>
        <time>2014-03-11T16:25:30Z</time>
      </trkpt>
      <trkpt lat="43.773935" lon="1.505501">
        <ele>184.3</ele>
        <time>2014-03-11T16:25:37Z</time>
      </trkpt>
      <trkpt lat="43.773988" lon="1.505395">
        <ele>183.8</ele>
        <time>2014-03-11T16:25:45Z</time>
      </trkpt>
      <trkpt lat="43.774040" lon="1.505290">
        <ele>183.1</ele>
        <time>2014-03-11T16:25:52Z</time>
      </trkpt>
      <trkpt lat="43.774089" lon="1.505185">
        <ele>182.7</ele>
        <time>2014-03-11T16:26:00Z</time>
      </trkpt>
      <trkpt lat="43.774144" lon="1.505082">
        <ele>182.3</ele>
        <time>2014-03-11T16:26:07Z</time>
      </trkpt>
      <trkpt lat="43.774196" lon="1.504966">
        <ele>181.8</ele>
        <time>2014-03-11T16:26:15Z</time>
      </trkpt>
      <trkpt lat="43.774269" lon="1.504870">
        <ele>181.2</ele>
        <time>2014-03-11T16:26:24Z</time>
      </trkpt>
      <trkpt lat="43.774333" lon="1.504787">
        <ele>180.7</ele>
        <time>2014-03-11T16:26:31Z</time>
      </trkpt>
      <trkpt lat="43.774399" lon="1.504669">
        <ele>179.6</ele>
        <time>2014-03-11T16:26:58Z</time>
      </trkpt>
      <trkpt lat="43.774468" lon="1.504579">
        <ele>179.6</ele>
        <time>2014-03-11T16:27:10Z</time>
      </trkpt>
      <trkpt lat="43.774523" lon="1.504475">
        <ele>179.2</ele>
        <time>2014-03-11T16:27:25Z</time>
      </trkpt>
      <trkpt lat="43.774593" lon="1.504379">
        <ele>178.9</ele>
        <time>2014-03-11T16:27:45Z</time>
      </trkpt>
      <trkpt lat="43.774652" lon="1.504280">
        <ele>178.8</ele>
        <time>2014-03-11T16:27:54Z</time>
      </trkpt>
      <trkpt lat="43.774707" lon="1.504180">
        <ele>178.2</ele>
        <time>2014-03-11T16:28:07Z</time>
      </trkpt>
      <trkpt lat="43.774765" lon="1.504061">
        <ele>177.8</ele>
        <time>2014-03-11T16:28:48Z</time>
      </trkpt>
      <trkpt lat="43.774825" lon="1.503965">
        <ele>177.4</ele>
        <time>2014-03-11T16:28:56Z</time>
      </trkpt>
      <trkpt lat="43.774879" lon="1.503864">
        <ele>176.9</ele>
        <time>2014-03-11T16:29:04Z</time>
      </trkpt>
      <trkpt lat="43.774948" lon="1.503763">
        <ele>176.0</ele>
        <time>2014-03-11T16:29:12Z</time>
      </trkpt>
      <trkpt lat="43.775021" lon="1.503646">
        <ele>175.1</ele>
        <time>2014-03-11T16:29:22Z</time>
      </trkpt>
      <trkpt lat="43.775107" lon="1.503562">
        <ele>174.0</ele>
        <time>2014-03-11T16:29:29Z</time>
      </trkpt>
      <trkpt lat="43.775196" lon="1.503530">
        <ele>173.1</ele>
        <time>2014-03-11T16:29:35Z</time>
      </trkpt>
      <trkpt lat="43.775303" lon="1.503566">
        <ele>172.0</ele>
        <time>2014-03-11T16:29:44Z</time>
      </trkpt>
      <trkpt lat="43.775377" lon="1.503662">
        <ele>171.6</ele>
        <time>2014-03-11T16:29:50Z</time>
      </trkpt>
      <trkpt lat="43.775443" lon="1.503746">
        <ele>171.2</ele>
        <time>2014-03-11T16:29:58Z</time>
      </trkpt>
      <trkpt lat="43.775519" lon="1.503853">
        <ele>170.8</ele>
        <time>2014-03-11T16:30:06Z</time>
      </trkpt>
      <trkpt lat="43.775573" lon="1.503945">
        <ele>170.4</ele>
        <time>2014-03-11T16:30:12Z</time>
      </trkpt>
      <trkpt lat="43.775636" lon="1.504051">
        <ele>170.6</ele>
        <time>2014-03-11T16:30:21Z</time>
      </trkpt>
      <trkpt lat="43.775696" lon="1.504169">
        <ele>170.4</ele>
        <time>2014-03-11T16:30:30Z</time>
      </trkpt>
      <trkpt lat="43.775755" lon="1.504283">
        <ele>170.6</ele>
        <time>2014-03-11T16:30:37Z</time>
      </trkpt>
      <trkpt lat="43.775843" lon="1.504355">
        <ele>169.8</ele>
        <time>2014-03-11T16:30:50Z</time>
      </trkpt>
      <trkpt lat="43.775929" lon="1.504431">
        <ele>169.4</ele>
        <time>2014-03-11T16:30:59Z</time>
      </trkpt>
      <trkpt lat="43.776011" lon="1.504513">
        <ele>168.9</ele>
        <time>2014-03-11T16:31:08Z</time>
      </trkpt>
      <trkpt lat="43.776108" lon="1.504520">
        <ele>168.4</ele>
        <time>2014-03-11T16:31:16Z</time>
      </trkpt>
      <trkpt lat="43.776191" lon="1.504441">
        <ele>167.8</ele>
        <time>2014-03-11T16:31:24Z</time>
      </trkpt>
      <trkpt lat="43.776256" lon="1.504345">
        <ele>167.3</ele>
        <time>2014-03-11T16:31:30Z</time>
      </trkpt>
      <trkpt lat="43.776317" lon="1.504250">
        <ele>166.9</ele>
        <time>2014-03-11T16:31:37Z</time>
      </trkpt>
      <trkpt lat="43.776370" lon="1.504127">
        <ele>166.7</ele>
        <time>2014-03-11T16:31:45Z</time>
      </trkpt>
      <trkpt lat="43.776422" lon="1.504028">
        <ele>166.4</ele>
        <time>2014-03-11T16:31:53Z</time>
      </trkpt>
      <trkpt lat="43.776473" lon="1.503904">
        <ele>166.2</ele>
        <time>2014-03-11T16:32:02Z</time>
      </trkpt>
      <trkpt lat="43.776531" lon="1.503801">
        <ele>166.1</ele>
        <time>2014-03-11T16:32:09Z</time>
      </trkpt>
      <trkpt lat="43.776590" lon="1.503686">
        <ele>166.0</ele>
        <time>2014-03-11T16:32:18Z</time>
      </trkpt>
      <trkpt lat="43.776648" lon="1.503580">
        <ele>166.1</ele>
        <time>2014-03-11T16:32:24Z</time>
      </trkpt>
      <trkpt lat="43.776695" lon="1.503474">
        <ele>165.9</ele>
        <time>2014-03-11T16:32:31Z</time>
      </trkpt>
      <trkpt lat="43.776747" lon="1.503359">
        <ele>165.8</ele>
        <time>2014-03-11T16:32:38Z</time>
      </trkpt>
      <trkpt lat="43.776802" lon="1.503269">
        <ele>165.9</ele>
        <time>2014-03-11T16:32:43Z</time>
      </trkpt>
      <trkpt lat="43.776845" lon="1.503158">
        <ele>165.9</ele>
        <time>2014-03-11T16:32:52Z</time>
      </trkpt>
      <trkpt lat="43.776898" lon="1.503032">
        <ele>165.9</ele>
        <time>2014-03-11T16:33:00Z</time>
      </trkpt>
      <trkpt lat="43.776966" lon="1.502910">
        <ele>165.9</ele>
        <time>2014-03-11T16:33:07Z</time>
      </trkpt>
      <trkpt lat="43.777007" lon="1.502797">
        <ele>165.8</ele>
        <time>2014-03-11T16:33:14Z</time>
      </trkpt>
      <trkpt lat="43.777068" lon="1.502706">
        <ele>166.0</ele>
        <time>2014-03-11T16:33:21Z</time>
      </trkpt>
      <trkpt lat="43.777143" lon="1.502614">
        <ele>166.0</ele>
        <time>2014-03-11T16:33:28Z</time>
      </trkpt>
      <trkpt lat="43.777209" lon="1.502521">
        <ele>165.8</ele>
        <time>2014-03-11T16:33:36Z</time>
      </trkpt>
      <trkpt lat="43.777280" lon="1.502438">
        <ele>165.9</ele>
        <time>2014-03-11T16:33:43Z</time>
      </trkpt>
      <trkpt lat="43.777369" lon="1.502380">
        <ele>165.8</ele>
        <time>2014-03-11T16:33:52Z</time>
      </trkpt>
      <trkpt lat="43.777460" lon="1.502320">
        <ele>165.9</ele>
        <time>2014-03-11T16:33:59Z</time>
      </trkpt>
      <trkpt lat="43.777532" lon="1.502223">
        <ele>165.9</ele>
        <time>2014-03-11T16:34:07Z</time>
      </trkpt>
      <trkpt lat="43.777616" lon="1.502176">
        <ele>165.5</ele>
        <time>2014-03-11T16:34:13Z</time>
      </trkpt>
      <trkpt lat="43.777693" lon="1.502086">
        <ele>165.6</ele>
        <time>2014-03-11T16:34:22Z</time>
      </trkpt>
      <trkpt lat="43.777766" lon="1.502011">
        <ele>165.6</ele>
        <time>2014-03-11T16:34:28Z</time>
      </trkpt>
      <trkpt lat="43.777833" lon="1.501928">
        <ele>165.6</ele>
        <time>2014-03-11T16:34:36Z</time>
      </trkpt>
      <trkpt lat="43.777897" lon="1.501849">
        <ele>165.7</ele>
        <time>2014-03-11T16:34:43Z</time>
      </trkpt>
      <trkpt lat="43.777967" lon="1.501775">
        <ele>165.8</ele>
        <time>2014-03-11T16:34:51Z</time>
      </trkpt>
      <trkpt lat="43.778036" lon="1.501706">
        <ele>165.9</ele>
        <time>2014-03-11T16:34:58Z</time>
      </trkpt>
      <trkpt lat="43.778102" lon="1.501614">
        <ele>165.9</ele>
        <time>2014-03-11T16:35:06Z</time>
      </trkpt>
      <trkpt lat="43.778161" lon="1.501534">
        <ele>166.2</ele>
        <time>2014-03-11T16:35:13Z</time>
      </trkpt>
      <trkpt lat="43.778230" lon="1.501441">
        <ele>166.3</ele>
        <time>2014-03-11T16:35:22Z</time>
      </trkpt>
      <trkpt lat="43.778299" lon="1.501340">
        <ele>166.2</ele>
        <time>2014-03-11T16:35:31Z</time>
      </trkpt>
      <trkpt lat="43.778366" lon="1.501255">
        <ele>166.3</ele>
        <time>2014-03-11T16:35:39Z</time>
      </trkpt>
      <trkpt lat="43.778442" lon="1.501186">
        <ele>166.3</ele>
        <time>2014-03-11T16:35:46Z</time>
      </trkpt>
      <trkpt lat="43.778525" lon="1.501136">
        <ele>165.9</ele>
        <time>2014-03-11T16:35:53Z</time>
      </trkpt>
      <trkpt lat="43.778622" lon="1.501123">
        <ele>165.2</ele>
        <time>2014-03-11T16:36:01Z</time>
      </trkpt>
      <trkpt lat="43.778718" lon="1.501118">
        <ele>164.8</ele>
        <time>2014-03-11T16:36:09Z</time>
      </trkpt>
      <trkpt lat="43.778817" lon="1.501129">
        <ele>163.5</ele>
        <time>2014-03-11T16:36:18Z</time>
      </trkpt>
      <trkpt lat="43.778880" lon="1.501172">
        <ele>162.3</ele>
        <time>2014-03-11T16:36:40Z</time>
      </trkpt>
      <trkpt lat="43.778999" lon="1.501204">
        <ele>161.4</ele>
        <time>2014-03-11T16:36:50Z</time>
      </trkpt>
      <trkpt lat="43.779108" lon="1.501229">
        <ele>160.6</ele>
        <time>2014-03-11T16:36:58Z</time>
      </trkpt>
      <trkpt lat="43.779210" lon="1.501247">
        <ele>159.9</ele>
        <time>2014-03-11T16:37:05Z</time>
      </trkpt>
      <trkpt lat="43.779282" lon="1.501319">
        <ele>158.9</ele>
        <time>2014-03-11T16:37:12Z</time>
      </trkpt>
      <trkpt lat="43.779373" lon="1.501393">
        <ele>157.6</ele>
        <time>2014-03-11T16:37:21Z</time>
      </trkpt>
      <trkpt lat="43.779454" lon="1.501473">
        <ele>156.9</ele>
        <time>2014-03-11T16:37:28Z</time>
      </trkpt>
      <trkpt lat="43.779516" lon="1.501566">
        <ele>156.2</ele>
        <time>2014-03-11T16:37:35Z</time>
      </trkpt>
      <trkpt lat="43.779572" lon="1.501624">
        <ele>155.2</ele>
        <time>2014-03-11T16:38:10Z</time>
      </trkpt>
      <trkpt lat="43.779606" lon="1.501736">
        <ele>155.1</ele>
        <time>2014-03-11T16:38:36Z</time>
      </trkpt>
      <trkpt lat="43.779656" lon="1.501843">
        <ele>155.2</ele>
        <time>2014-03-11T16:39:21Z</time>
      </trkpt>
      <trkpt lat="43.779723" lon="1.501957">
        <ele>155.0</ele>
        <time>2014-03-11T16:39:30Z</time>
      </trkpt>
      <trkpt lat="43.779779" lon="1.502061">
        <ele>154.9</ele>
        <time>2014-03-11T16:39:38Z</time>
      </trkpt>
      <trkpt lat="43.779839" lon="1.502163">
        <ele>154.8</ele>
        <time>2014-03-11T16:39:47Z</time>
      </trkpt>
      <trkpt lat="43.779908" lon="1.502285">
        <ele>154.8</ele>
        <time>2014-03-11T16:39:55Z</time>
      </trkpt>
      <trkpt lat="43.779972" lon="1.502399">
        <ele>155.0</ele>
        <time>2014-03-11T16:40:03Z</time>
      </trkpt>
      <trkpt lat="43.780032" lon="1.502501">
        <ele>154.9</ele>
        <time>2014-03-11T16:40:10Z</time>
      </trkpt>
      <trkpt lat="43.780095" lon="1.502600">
        <ele>155.1</ele>
        <time>2014-03-11T16:40:17Z</time>
      </trkpt>
      <trkpt lat="43.780140" lon="1.502704">
        <ele>155.3</ele>
        <time>2014-03-11T16:40:24Z</time>
      </trkpt>
      <trkpt lat="43.780191" lon="1.502820">
        <ele>155.2</ele>
        <time>2014-03-11T16:40:32Z</time>
      </trkpt>
      <trkpt lat="43.780241" lon="1.502921">
        <ele>154.9</ele>
        <time>2014-03-11T16:40:39Z</time>
      </trkpt>
      <trkpt lat="43.780292" lon="1.503017">
        <ele>154.7</ele>
        <time>2014-03-11T16:40:47Z</time>
      </trkpt>
      <trkpt lat="43.780351" lon="1.503116">
        <ele>154.7</ele>
        <time>2014-03-11T16:40:55Z</time>
      </trkpt>
      <trkpt lat="43.780410" lon="1.503228">
        <ele>154.1</ele>
        <time>2014-03-11T16:41:03Z</time>
      </trkpt>
      <trkpt lat="43.780461" lon="1.503339">
        <ele>153.4</ele>
        <time>2014-03-11T16:41:12Z</time>
      </trkpt>
      <trkpt lat="43.780515" lon="1.503448">
        <ele>152.8</ele>
        <time>2014-03-11T16:41:21Z</time>
      </trkpt>
      <trkpt lat="43.780555" lon="1.503560">
        <ele>151.7</ele>
        <time>2014-03-11T16:41:30Z</time>
      </trkpt>
      <trkpt lat="43.780603" lon="1.503667">
        <ele>151.1</ele>
        <time>2014-03-11T16:41:38Z</time>
      </trkpt>
      <trkpt lat="43.780661" lon="1.503782">
        <ele>150.4</ele>
        <time>2014-03-11T16:41:47Z</time>
      </trkpt>
      <trkpt lat="43.780737" lon="1.503940">
        <ele>149.6</ele>
        <time>2014-03-11T16:41:57Z</time>
      </trkpt>
      <trkpt lat="43.780793" lon="1.504082">
        <ele>148.5</ele>
        <time>2014-03-11T16:42:07Z</time>
      </trkpt>
      <trkpt lat="43.780796" lon="1.504232">
        <ele>147.6</ele>
        <time>2014-03-11T16:42:16Z</time>
      </trkpt>
      <trkpt lat="43.780779" lon="1.504395">
        <ele>146.8</ele>
        <time>2014-03-11T16:42:27Z</time>
      </trkpt>
      <trkpt lat="43.780753" lon="1.504564">
        <ele>146.6</ele>
        <time>2014-03-11T16:42:37Z</time>
      </trkpt>
      <trkpt lat="43.780752" lon="1.504701">
        <ele>146.6</ele>
        <time>2014-03-11T16:42:46Z</time>
      </trkpt>
      <trkpt lat="43.780770" lon="1.504829">
        <ele>147.0</ele>
        <time>2014-03-11T16:42:55Z</time>
      </trkpt>
      <trkpt lat="43.780818" lon="1.504901">
        <ele>147.5</ele>
        <time>2014-03-11T16:43:21Z</time>
      </trkpt>
      <trkpt lat="43.780819" lon="1.504999">
        <ele>148.2</ele>
        <time>2014-03-11T16:43:45Z</time>
      </trkpt>
      <trkpt lat="43.780853" lon="1.505131">
        <ele>148.7</ele>
        <time>2014-03-11T16:43:55Z</time>
      </trkpt>
      <trkpt lat="43.780910" lon="1.505221">
        <ele>149.7</ele>
        <time>2014-03-11T16:44:03Z</time>
      </trkpt>
      <trkpt lat="43.780980" lon="1.505333">
        <ele>150.6</ele>
        <time>2014-03-11T16:44:12Z</time>
      </trkpt>
      <trkpt lat="43.781064" lon="1.505390">
        <ele>151.7</ele>
        <time>2014-03-11T16:44:21Z</time>
        <name>Les Toulzas</name>
      </trkpt>
      <trkpt lat="43.781154" lon="1.505338">
        <ele>151.4</ele>
        <time>2014-03-11T16:44:44Z</time>
      </trkpt>
      <trkpt lat="43.781239" lon="1.505252">
        <ele>151.4</ele>
        <time>2014-03-11T16:44:54Z</time>
      </trkpt>
      <trkpt lat="43.781308" lon="1.505171">
        <ele>151.2</ele>
        <time>2014-03-11T16:45:05Z</time>
      </trkpt>
      <trkpt lat="43.781385" lon="1.505063">
        <ele>150.6</ele>
        <time>2014-03-11T16:45:21Z</time>
      </trkpt>
      <trkpt lat="43.781476" lon="1.504950">
        <ele>149.7</ele>
        <time>2014-03-11T16:45:45Z</time>
      </trkpt>
      <trkpt lat="43.781558" lon="1.504864">
        <ele>148.9</ele>
        <time>2014-03-11T16:45:53Z</time>
      </trkpt>
      <trkpt lat="43.781617" lon="1.504753">
        <ele>147.9</ele>
        <time>2014-03-11T16:46:03Z</time>
      </trkpt>
      <trkpt lat="43.781677" lon="1.504641">
        <ele>146.7</ele>
        <time>2014-03-11T16:46:13Z</time>
      </trkpt>
      <trkpt lat="43.781757" lon="1.504529">
        <ele>145.6</ele>
        <time>2014-03-11T16:46:23Z</time>
      </trkpt>
      <trkpt lat="43.781804" lon="1.504413">
        <ele>144.5</ele>
        <time>2014-03-11T16:46:32Z</time>
      </trkpt>
      <trkpt lat="43.781838" lon="1.504292">
        <ele>143.5</ele>
        <time>2014-03-11T16:46:41Z</time>
      </trkpt>
      <trkpt lat="43.781858" lon="1.504165">
        <ele>142.4</ele>
        <time>2014-03-11T16:46:51Z</time>
      </trkpt>
      <trkpt lat="43.781891" lon="1.504044">
        <ele>141.7</ele>
        <time>2014-03-11T16:46:59Z</time>
      </trkpt>
      <trkpt lat="43.781920" lon="1.503910">
        <ele>140.9</ele>
        <time>2014-03-11T16:47:08Z</time>
      </trkpt>
      <trkpt lat="43.781947" lon="1.503783">
        <ele>139.7</ele>
        <time>2014-03-11T16:47:17Z</time>
      </trkpt>
      <trkpt lat="43.781993" lon="1.503657">
        <ele>139.3</ele>
        <time>2014-03-11T16:47:25Z</time>
      </trkpt>
      <trkpt lat="43.782054" lon="1.503527">
        <ele>138.4</ele>
        <time>2014-03-11T16:47:35Z</time>
      </trkpt>
      <trkpt lat="43.782106" lon="1.503419">
        <ele>138.2</ele>
        <time>2014-03-11T16:47:41Z</time>
      </trkpt>
      <trkpt lat="43.782175" lon="1.503306">
        <ele>137.8</ele>
        <time>2014-03-11T16:47:53Z</time>
      </trkpt>
      <trkpt lat="43.782228" lon="1.503186">
        <ele>137.5</ele>
        <time>2014-03-11T16:47:59Z</time>
      </trkpt>
      <trkpt lat="43.782276" lon="1.503037">
        <ele>137.3</ele>
        <time>2014-03-11T16:48:10Z</time>
      </trkpt>
      <trkpt lat="43.782311" lon="1.502909">
        <ele>137.2</ele>
        <time>2014-03-11T16:48:16Z</time>
      </trkpt>
      <trkpt lat="43.782346" lon="1.502746">
        <ele>137.2</ele>
        <time>2014-03-11T16:48:27Z</time>
      </trkpt>
      <trkpt lat="43.782353" lon="1.502599">
        <ele>138.0</ele>
        <time>2014-03-11T16:48:38Z</time>
      </trkpt>
      <trkpt lat="43.782365" lon="1.502417">
        <ele>137.9</ele>
        <time>2014-03-11T16:48:50Z</time>
      </trkpt>
      <trkpt lat="43.782414" lon="1.502194">
        <ele>137.4</ele>
        <time>2014-03-11T16:49:00Z</time>
      </trkpt>
      <trkpt lat="43.782466" lon="1.502056">
        <ele>137.2</ele>
        <time>2014-03-11T16:49:09Z</time>
      </trkpt>
      <trkpt lat="43.782515" lon="1.501918">
        <ele>137.2</ele>
        <time>2014-03-11T16:49:18Z</time>
      </trkpt>
      <trkpt lat="43.782577" lon="1.501767">
        <ele>137.1</ele>
        <time>2014-03-11T16:49:27Z</time>
      </trkpt>
      <trkpt lat="43.782646" lon="1.501654">
        <ele>136.8</ele>
        <time>2014-03-11T16:49:35Z</time>
      </trkpt>
      <trkpt lat="43.782709" lon="1.501560">
        <ele>136.6</ele>
        <time>2014-03-11T16:49:42Z</time>
      </trkpt>
      <trkpt lat="43.782765" lon="1.501451">
        <ele>136.6</ele>
        <time>2014-03-11T16:49:50Z</time>
      </trkpt>
      <trkpt lat="43.782822" lon="1.501354">
        <ele>136.7</ele>
        <time>2014-03-11T16:49:57Z</time>
      </trkpt>
      <trkpt lat="43.782880" lon="1.501250">
        <ele>136.7</ele>
        <time>2014-03-11T16:50:05Z</time>
      </trkpt>
      <trkpt lat="43.782935" lon="1.501151">
        <ele>136.6</ele>
        <time>2014-03-11T16:50:13Z</time>
      </trkpt>
      <trkpt lat="43.782987" lon="1.501045">
        <ele>136.5</ele>
        <time>2014-03-11T16:50:21Z</time>
      </trkpt>
      <trkpt lat="43.783048" lon="1.500923">
        <ele>136.2</ele>
        <time>2014-03-11T16:50:30Z</time>
      </trkpt>
      <trkpt lat="43.783102" lon="1.500803">
        <ele>135.9</ele>
        <time>2014-03-11T16:50:38Z</time>
      </trkpt>
      <trkpt lat="43.783148" lon="1.500691">
        <ele>135.5</ele>
        <time>2014-03-11T16:50:45Z</time>
      </trkpt>
      <trkpt lat="43.783200" lon="1.500591">
        <ele>135.2</ele>
        <time>2014-03-11T16:50:52Z</time>
      </trkpt>
      <trkpt lat="43.783245" lon="1.500469">
        <ele>135.1</ele>
        <time>2014-03-11T16:50:59Z</time>
      </trkpt>
      <trkpt lat="43.783301" lon="1.500356">
        <ele>134.9</ele>
        <time>2014-03-11T16:51:06Z</time>
      </trkpt>
      <trkpt lat="43.783370" lon="1.500272">
        <ele>134.7</ele>
        <time>2014-03-11T16:51:14Z</time>
      </trkpt>
      <trkpt lat="43.783420" lon="1.500152">
        <ele>134.4</ele>
        <time>2014-03-11T16:51:21Z</time>
      </trkpt>
      <trkpt lat="43.783466" lon="1.499998">
        <ele>134.1</ele>
        <time>2014-03-11T16:51:28Z</time>
      </trkpt>
      <trkpt lat="43.783520" lon="1.499911">
        <ele>133.9</ele>
        <time>2014-03-11T16:51:35Z</time>
      </trkpt>
      <trkpt lat="43.783578" lon="1.499829">
        <ele>133.6</ele>
        <time>2014-03-11T16:51:42Z</time>
      </trkpt>
      <trkpt lat="43.783649" lon="1.499739">
        <ele>133.3</ele>
        <time>2014-03-11T16:51:49Z</time>
      </trkpt>
      <trkpt lat="43.783703" lon="1.499627">
        <ele>133.0</ele>
        <time>2014-03-11T16:51:56Z</time>
      </trkpt>
      <trkpt lat="43.783751" lon="1.499484">
        <ele>132.7</ele>
        <time>2014-03-11T16:52:03Z</time>
      </trkpt>
      <trkpt lat="43.783822" lon="1.499397">
        <ele>132.6</ele>
        <time>2014-03-11T16:52:10Z</time>
      </trkpt>
      <trkpt lat="43.783891" lon="1.499328">
        <ele>132.6</ele>
        <time>2014-03-11T16:52:16Z</time>
      </trkpt>
      <trkpt lat="43.783966" lon="1.499258">
        <ele>132.5</ele>
        <time>2014-03-11T16:52:23Z</time>
      </trkpt>
      <trkpt lat="43.784027" lon="1.499148">
        <ele>132.2</ele>
        <time>2014-03-11T16:52:30Z</time>
      </trkpt>
      <trkpt lat="43.784098" lon="1.499076">
        <ele>132.1</ele>
        <time>2014-03-11T16:52:37Z</time>
      </trkpt>
      <trkpt lat="43.784160" lon="1.498974">
        <ele>131.9</ele>
        <time>2014-03-11T16:52:43Z</time>
      </trkpt>
      <trkpt lat="43.784222" lon="1.498888">
        <ele>131.7</ele>
        <time>2014-03-11T16:52:49Z</time>
      </trkpt>
      <trkpt lat="43.784278" lon="1.498809">
        <ele>132.0</ele>
        <time>2014-03-11T16:52:55Z</time>
      </trkpt>
      <trkpt lat="43.784356" lon="1.498745">
        <ele>131.6</ele>
        <time>2014-03-11T16:53:02Z</time>
      </trkpt>
      <trkpt lat="43.784415" lon="1.498643">
        <ele>131.6</ele>
        <time>2014-03-11T16:53:09Z</time>
      </trkpt>
      <trkpt lat="43.784473" lon="1.498532">
        <ele>131.4</ele>
        <time>2014-03-11T16:53:17Z</time>
      </trkpt>
      <trkpt lat="43.784543" lon="1.498432">
        <ele>131.2</ele>
        <time>2014-03-11T16:53:24Z</time>
      </trkpt>
      <trkpt lat="43.784615" lon="1.498317">
        <ele>131.2</ele>
        <time>2014-03-11T16:53:31Z</time>
      </trkpt>
      <trkpt lat="43.784677" lon="1.498201">
        <ele>131.1</ele>
        <time>2014-03-11T16:53:38Z</time>
      </trkpt>
      <trkpt lat="43.784737" lon="1.498099">
        <ele>130.8</ele>
        <time>2014-03-11T16:53:45Z</time>
      </trkpt>
      <trkpt lat="43.784825" lon="1.497993">
        <ele>130.4</ele>
        <time>2014-03-11T16:53:57Z</time>
      </trkpt>
      <trkpt lat="43.784905" lon="1.497877">
        <ele>130.0</ele>
        <time>2014-03-11T16:54:05Z</time>
      </trkpt>
      <trkpt lat="43.784977" lon="1.497735">
        <ele>129.6</ele>
        <time>2014-03-11T16:54:13Z</time>
      </trkpt>
      <trkpt lat="43.785041" lon="1.497610">
        <ele>129.5</ele>
        <time>2014-03-11T16:54:20Z</time>
      </trkpt>
      <trkpt lat="43.785113" lon="1.497469">
        <ele>129.2</ele>
        <time>2014-03-11T16:54:30Z</time>
      </trkpt>
      <trkpt lat="43.785169" lon="1.497361">
        <ele>129.1</ele>
        <time>2014-03-11T16:54:37Z</time>
      </trkpt>
      <trkpt lat="43.785223" lon="1.497244">
        <ele>129.5</ele>
        <time>2014-03-11T16:54:46Z</time>
      </trkpt>
      <trkpt lat="43.785298" lon="1.497111">
        <ele>129.1</ele>
        <time>2014-03-11T16:54:55Z</time>
      </trkpt>
      <trkpt lat="43.785368" lon="1.496939">
        <ele>129.2</ele>
        <time>2014-03-11T16:55:06Z</time>
      </trkpt>
      <trkpt lat="43.785447" lon="1.496822">
        <ele>129.1</ele>
        <time>2014-03-11T16:55:15Z</time>
      </trkpt>
      <trkpt lat="43.785527" lon="1.496674">
        <ele>129.2</ele>
        <time>2014-03-11T16:55:25Z</time>
      </trkpt>
      <trkpt lat="43.785606" lon="1.496562">
        <ele>129.4</ele>
        <time>2014-03-11T16:55:34Z</time>
      </trkpt>
      <trkpt lat="43.785686" lon="1.496447">
        <ele>129.1</ele>
        <time>2014-03-11T16:55:43Z</time>
      </trkpt>
      <trkpt lat="43.785761" lon="1.496338">
        <ele>128.7</ele>
        <time>2014-03-11T16:55:51Z</time>
      </trkpt>
      <trkpt lat="43.785808" lon="1.496210">
        <ele>128.7</ele>
        <time>2014-03-11T16:56:04Z</time>
      </trkpt>
      <trkpt lat="43.785867" lon="1.496192">
        <ele>128.8</ele>
        <time>2014-03-11T16:56:43Z</time>
      </trkpt>
      <trkpt lat="43.785859" lon="1.496051">
        <ele>128.9</ele>
        <time>2014-03-11T16:56:53Z</time>
      </trkpt>
      <trkpt lat="43.785834" lon="1.495907">
        <ele>128.9</ele>
        <time>2014-03-11T16:57:03Z</time>
      </trkpt>
      <trkpt lat="43.785816" lon="1.495765">
        <ele>129.4</ele>
        <time>2014-03-11T16:57:14Z</time>
      </trkpt>
      <trkpt lat="43.785783" lon="1.495601">
        <ele>129.5</ele>
        <time>2014-03-11T16:57:24Z</time>
      </trkpt>
      <trkpt lat="43.785761" lon="1.495433">
        <ele>129.4</ele>
        <time>2014-03-11T16:57:34Z</time>
      </trkpt>
      <trkpt lat="43.785735" lon="1.495279">
        <ele>129.5</ele>
        <time>2014-03-11T16:57:44Z</time>
      </trkpt>
      <trkpt lat="43.785716" lon="1.495131">
        <ele>129.4</ele>
        <time>2014-03-11T16:57:54Z</time>
      </trkpt>
      <trkpt lat="43.785665" lon="1.494940">
        <ele>129.3</ele>
        <time>2014-03-11T16:58:04Z</time>
      </trkpt>
      <trkpt lat="43.785624" lon="1.494788">
        <ele>129.1</ele>
        <time>2014-03-11T16:58:12Z</time>
      </trkpt>
      <trkpt lat="43.785588" lon="1.494654">
        <ele>129.1</ele>
        <time>2014-03-11T16:58:19Z</time>
      </trkpt>
      <trkpt lat="43.785552" lon="1.494531">
        <ele>129.1</ele>
        <time>2014-03-11T16:58:26Z</time>
      </trkpt>
      <trkpt lat="43.785521" lon="1.494390">
        <ele>129.4</ele>
        <time>2014-03-11T16:58:34Z</time>
      </trkpt>
      <trkpt lat="43.785473" lon="1.494248">
        <ele>129.7</ele>
        <time>2014-03-11T16:58:42Z</time>
      </trkpt>
      <trkpt lat="43.785438" lon="1.494123">
        <ele>129.9</ele>
        <time>2014-03-11T16:58:49Z</time>
      </trkpt>
      <trkpt lat="43.785394" lon="1.493996">
        <ele>130.1</ele>
        <time>2014-03-11T16:58:56Z</time>
      </trkpt>
      <trkpt lat="43.785326" lon="1.493863">
        <ele>130.2</ele>
        <time>2014-03-11T16:59:05Z</time>
      </trkpt>
      <trkpt lat="43.785267" lon="1.493736">
        <ele>130.8</ele>
        <time>2014-03-11T16:59:13Z</time>
      </trkpt>
      <trkpt lat="43.785267" lon="1.493600">
        <ele>131.0</ele>
        <time>2014-03-11T16:59:24Z</time>
      </trkpt>
      <trkpt lat="43.785160" lon="1.493449">
        <ele>131.2</ele>
        <time>2014-03-11T16:59:31Z</time>
      </trkpt>
      <trkpt lat="43.785067" lon="1.493314">
        <ele>131.6</ele>
        <time>2014-03-11T16:59:39Z</time>
      </trkpt>
      <trkpt lat="43.785001" lon="1.493153">
        <ele>132.1</ele>
        <time>2014-03-11T16:59:49Z</time>
      </trkpt>
      <trkpt lat="43.784941" lon="1.493011">
        <ele>132.7</ele>
        <time>2014-03-11T16:59:56Z</time>
      </trkpt>
      <trkpt lat="43.784886" lon="1.492902">
        <ele>133.2</ele>
        <time>2014-03-11T17:00:03Z</time>
      </trkpt>
      <trkpt lat="43.784820" lon="1.492769">
        <ele>133.8</ele>
        <time>2014-03-11T17:00:12Z</time>
      </trkpt>
      <trkpt lat="43.784775" lon="1.492642">
        <ele>134.4</ele>
        <time>2014-03-11T17:00:20Z</time>
      </trkpt>
      <trkpt lat="43.784740" lon="1.492504">
        <ele>134.6</ele>
        <time>2014-03-11T17:00:29Z</time>
      </trkpt>
      <trkpt lat="43.784670" lon="1.492316">
        <ele>134.5</ele>
        <time>2014-03-11T17:00:41Z</time>
      </trkpt>
      <trkpt lat="43.784629" lon="1.492162">
        <ele>134.7</ele>
        <time>2014-03-11T17:00:48Z</time>
      </trkpt>
      <trkpt lat="43.784570" lon="1.492035">
        <ele>134.6</ele>
        <time>2014-03-11T17:00:55Z</time>
      </trkpt>
      <trkpt lat="43.784489" lon="1.491902">
        <ele>134.3</ele>
        <time>2014-03-11T17:01:08Z</time>
      </trkpt>
      <trkpt lat="43.784423" lon="1.491728">
        <ele>134.2</ele>
        <time>2014-03-11T17:01:16Z</time>
      </trkpt>
      <trkpt lat="43.784371" lon="1.491608">
        <ele>134.1</ele>
        <time>2014-03-11T17:01:23Z</time>
      </trkpt>
      <trkpt lat="43.784277" lon="1.491466">
        <ele>133.9</ele>
        <time>2014-03-11T17:01:35Z</time>
      </trkpt>
      <trkpt lat="43.784196" lon="1.491359">
        <ele>133.6</ele>
        <time>2014-03-11T17:01:42Z</time>
      </trkpt>
      <trkpt lat="43.784119" lon="1.491242">
        <ele>133.5</ele>
        <time>2014-03-11T17:01:49Z</time>
      </trkpt>
      <trkpt lat="43.784057" lon="1.491152">
        <ele>133.4</ele>
        <time>2014-03-11T17:01:56Z</time>
      </trkpt>
      <trkpt lat="43.783962" lon="1.491070">
        <ele>133.1</ele>
        <time>2014-03-11T17:02:07Z</time>
      </trkpt>
      <trkpt lat="43.783879" lon="1.490970">
        <ele>132.7</ele>
        <time>2014-03-11T17:02:14Z</time>
      </trkpt>
      <trkpt lat="43.783799" lon="1.490894">
        <ele>132.3</ele>
        <time>2014-03-11T17:02:21Z</time>
      </trkpt>
      <trkpt lat="43.783698" lon="1.490817">
        <ele>132.1</ele>
        <time>2014-03-11T17:02:31Z</time>
      </trkpt>
      <trkpt lat="43.783631" lon="1.490722">
        <ele>131.9</ele>
        <time>2014-03-11T17:02:37Z</time>
      </trkpt>
      <trkpt lat="43.783621" lon="1.490593">
        <ele>131.8</ele>
        <time>2014-03-11T17:02:47Z</time>
      </trkpt>
      <trkpt lat="43.783671" lon="1.490488">
        <ele>131.7</ele>
        <time>2014-03-11T17:02:59Z</time>
      </trkpt>
      <trkpt lat="43.783738" lon="1.490359">
        <ele>131.6</ele>
        <time>2014-03-11T17:03:09Z</time>
      </trkpt>
      <trkpt lat="43.783794" lon="1.490242">
        <ele>131.9</ele>
        <time>2014-03-11T17:03:18Z</time>
        <name>Ruisseau de Pouchigue</name>
      </trkpt>
      <trkpt lat="43.783856" lon="1.490122">
        <ele>132.3</ele>
        <time>2014-03-11T17:03:27Z</time>
      </trkpt>
      <trkpt lat="43.783888" lon="1.489998">
        <ele>132.3</ele>
        <time>2014-03-11T17:03:37Z</time>
      </trkpt>
      <trkpt lat="43.783933" lon="1.489875">
        <ele>132.2</ele>
        <time>2014-03-11T17:03:46Z</time>
      </trkpt>
      <trkpt lat="43.783957" lon="1.489746">
        <ele>132.2</ele>
        <time>2014-03-11T17:03:54Z</time>
      </trkpt>
      <trkpt lat="43.783989" lon="1.489597">
        <ele>132.1</ele>
        <time>2014-03-11T17:04:04Z</time>
      </trkpt>
      <trkpt lat="43.784016" lon="1.489484">
        <ele>132.4</ele>
        <time>2014-03-11T17:04:11Z</time>
      </trkpt>
      <trkpt lat="43.784048" lon="1.489358">
        <ele>132.8</ele>
        <time>2014-03-11T17:04:19Z</time>
      </trkpt>
      <trkpt lat="43.784086" lon="1.489232">
        <ele>133.1</ele>
        <time>2014-03-11T17:04:27Z</time>
      </trkpt>
      <trkpt lat="43.784118" lon="1.489120">
        <ele>133.6</ele>
        <time>2014-03-11T17:04:35Z</time>
      </trkpt>
      <trkpt lat="43.784147" lon="1.488986">
        <ele>134.2</ele>
        <time>2014-03-11T17:04:43Z</time>
      </trkpt>
      <trkpt lat="43.784189" lon="1.488861">
        <ele>134.5</ele>
        <time>2014-03-11T17:04:51Z</time>
      </trkpt>
      <trkpt lat="43.784229" lon="1.488743">
        <ele>134.8</ele>
        <time>2014-03-11T17:04:58Z</time>
      </trkpt>
      <trkpt lat="43.784270" lon="1.488632">
        <ele>135.9</ele>
        <time>2014-03-11T17:05:06Z</time>
      </trkpt>
      <trkpt lat="43.784305" lon="1.488512">
        <ele>136.4</ele>
        <time>2014-03-11T17:05:14Z</time>
      </trkpt>
      <trkpt lat="43.784344" lon="1.488395">
        <ele>137.1</ele>
        <time>2014-03-11T17:05:23Z</time>
      </trkpt>
      <trkpt lat="43.784393" lon="1.488293">
        <ele>137.9</ele>
        <time>2014-03-11T17:05:32Z</time>
      </trkpt>
      <trkpt lat="43.784471" lon="1.488227">
        <ele>138.9</ele>
        <time>2014-03-11T17:05:49Z</time>
      </trkpt>
      <trkpt lat="43.784564" lon="1.488230">
        <ele>139.4</ele>
        <time>2014-03-11T17:05:58Z</time>
      </trkpt>
      <trkpt lat="43.784664" lon="1.488258">
        <ele>140.1</ele>
        <time>2014-03-11T17:06:07Z</time>
      </trkpt>
      <trkpt lat="43.784765" lon="1.488248">
        <ele>141.6</ele>
        <time>2014-03-11T17:07:14Z</time>
      </trkpt>
      <trkpt lat="43.784848" lon="1.488174">
        <ele>142.8</ele>
        <time>2014-03-11T17:07:40Z</time>
      </trkpt>
      <trkpt lat="43.784917" lon="1.488063">
        <ele>143.6</ele>
        <time>2014-03-11T17:07:51Z</time>
      </trkpt>
      <trkpt lat="43.784979" lon="1.487963">
        <ele>144.5</ele>
        <time>2014-03-11T17:08:22Z</time>
      </trkpt>
      <trkpt lat="43.785035" lon="1.487863">
        <ele>145.3</ele>
        <time>2014-03-11T17:08:33Z</time>
      </trkpt>
      <trkpt lat="43.785098" lon="1.487772">
        <ele>145.9</ele>
        <time>2014-03-11T17:08:49Z</time>
      </trkpt>
      <trkpt lat="43.785160" lon="1.487670">
        <ele>146.9</ele>
        <time>2014-03-11T17:09:00Z</time>
      </trkpt>
      <trkpt lat="43.785217" lon="1.487562">
        <ele>147.7</ele>
        <time>2014-03-11T17:09:10Z</time>
      </trkpt>
      <trkpt lat="43.785261" lon="1.487455">
        <ele>148.4</ele>
        <time>2014-03-11T17:09:19Z</time>
      </trkpt>
      <trkpt lat="43.785321" lon="1.487350">
        <ele>149.0</ele>
        <time>2014-03-11T17:09:27Z</time>
      </trkpt>
      <trkpt lat="43.785383" lon="1.487243">
        <ele>149.7</ele>
        <time>2014-03-11T17:09:36Z</time>
      </trkpt>
      <trkpt lat="43.785440" lon="1.487141">
        <ele>150.2</ele>
        <time>2014-03-11T17:09:44Z</time>
      </trkpt>
      <trkpt lat="43.785489" lon="1.487029">
        <ele>150.4</ele>
        <time>2014-03-11T17:09:51Z</time>
      </trkpt>
      <trkpt lat="43.785552" lon="1.486938">
        <ele>150.8</ele>
        <time>2014-03-11T17:09:59Z</time>
      </trkpt>
      <trkpt lat="43.785610" lon="1.486828">
        <ele>151.1</ele>
        <time>2014-03-11T17:10:06Z</time>
      </trkpt>
      <trkpt lat="43.785663" lon="1.486723">
        <ele>151.4</ele>
        <time>2014-03-11T17:10:14Z</time>
      </trkpt>
      <trkpt lat="43.785714" lon="1.486636">
        <ele>151.9</ele>
        <time>2014-03-11T17:10:23Z</time>
      </trkpt>
      <trkpt lat="43.785691" lon="1.486520">
        <ele>152.4</ele>
        <time>2014-03-11T17:10:36Z</time>
      </trkpt>
      <trkpt lat="43.785633" lon="1.486400">
        <ele>152.6</ele>
        <time>2014-03-11T17:10:45Z</time>
      </trkpt>
      <trkpt lat="43.785572" lon="1.486298">
        <ele>152.9</ele>
        <time>2014-03-11T17:10:53Z</time>
      </trkpt>
      <trkpt lat="43.785496" lon="1.486208">
        <ele>152.6</ele>
        <time>2014-03-11T17:11:03Z</time>
      </trkpt>
      <trkpt lat="43.785383" lon="1.486129">
        <ele>152.3</ele>
        <time>2014-03-11T17:11:14Z</time>
      </trkpt>
      <trkpt lat="43.785280" lon="1.486088">
        <ele>152.2</ele>
        <time>2014-03-11T17:11:23Z</time>
      </trkpt>
      <trkpt lat="43.785163" lon="1.486052">
        <ele>151.9</ele>
        <time>2014-03-11T17:11:32Z</time>
      </trkpt>
      <trkpt lat="43.785055" lon="1.486039">
        <ele>152.0</ele>
        <time>2014-03-11T17:11:41Z</time>
      </trkpt>
      <trkpt lat="43.784924" lon="1.486003">
        <ele>152.1</ele>
        <time>2014-03-11T17:11:51Z</time>
      </trkpt>
      <trkpt lat="43.784812" lon="1.485961">
        <ele>152.4</ele>
        <time>2014-03-11T17:12:00Z</time>
      </trkpt>
      <trkpt lat="43.784690" lon="1.485928">
        <ele>153.0</ele>
        <time>2014-03-11T17:12:11Z</time>
      </trkpt>
      <trkpt lat="43.784567" lon="1.485892">
        <ele>153.7</ele>
        <time>2014-03-11T17:12:22Z</time>
      </trkpt>
      <trkpt lat="43.784465" lon="1.485915">
        <ele>154.5</ele>
        <time>2014-03-11T17:12:31Z</time>
      </trkpt>
      <trkpt lat="43.784385" lon="1.485894">
        <ele>155.3</ele>
        <time>2014-03-11T17:12:39Z</time>
      </trkpt>
      <trkpt lat="43.784299" lon="1.485854">
        <ele>155.9</ele>
        <time>2014-03-11T17:12:47Z</time>
      </trkpt>
      <trkpt lat="43.784173" lon="1.485817">
        <ele>156.8</ele>
        <time>2014-03-11T17:12:57Z</time>
      </trkpt>
      <trkpt lat="43.784057" lon="1.485764">
        <ele>157.5</ele>
        <time>2014-03-11T17:13:06Z</time>
      </trkpt>
      <trkpt lat="43.783950" lon="1.485726">
        <ele>158.3</ele>
        <time>2014-03-11T17:13:15Z</time>
      </trkpt>
      <trkpt lat="43.783845" lon="1.485671">
        <ele>158.9</ele>
        <time>2014-03-11T17:13:23Z</time>
      </trkpt>
      <trkpt lat="43.783761" lon="1.485635">
        <ele>159.5</ele>
        <time>2014-03-11T17:13:31Z</time>
      </trkpt>
      <trkpt lat="43.783661" lon="1.485601">
        <ele>160.3</ele>
        <time>2014-03-11T17:13:40Z</time>
      </trkpt>
      <trkpt lat="43.783563" lon="1.485564">
        <ele>161.3</ele>
        <time>2014-03-11T17:13:50Z</time>
      </trkpt>
      <trkpt lat="43.783467" lon="1.485525">
        <ele>161.9</ele>
        <time>2014-03-11T17:13:59Z</time>
      </trkpt>
      <trkpt lat="43.783369" lon="1.485491">
        <ele>162.1</ele>
        <time>2014-03-11T17:14:08Z</time>
      </trkpt>
      <trkpt lat="43.783267" lon="1.485430">
        <ele>162.0</ele>
        <time>2014-03-11T17:14:18Z</time>
      </trkpt>
      <trkpt lat="43.783159" lon="1.485393">
        <ele>162.1</ele>
        <time>2014-03-11T17:14:27Z</time>
      </trkpt>
      <trkpt lat="43.783061" lon="1.485346">
        <ele>162.3</ele>
        <time>2014-03-11T17:14:36Z</time>
      </trkpt>
      <trkpt lat="43.782952" lon="1.485296">
        <ele>162.3</ele>
        <time>2014-03-11T17:14:45Z</time>
      </trkpt>
      <trkpt lat="43.782841" lon="1.485258">
        <ele>162.2</ele>
        <time>2014-03-11T17:14:53Z</time>
      </trkpt>
      <trkpt lat="43.782735" lon="1.485212">
        <ele>162.1</ele>
        <time>2014-03-11T17:15:02Z</time>
      </trkpt>
      <trkpt lat="43.782644" lon="1.485184">
        <ele>162.1</ele>
        <time>2014-03-11T17:15:08Z</time>
      </trkpt>
      <trkpt lat="43.782539" lon="1.485163">
        <ele>161.9</ele>
        <time>2014-03-11T17:15:17Z</time>
      </trkpt>
      <trkpt lat="43.782446" lon="1.485111">
        <ele>161.8</ele>
        <time>2014-03-11T17:15:24Z</time>
      </trkpt>
      <trkpt lat="43.782357" lon="1.485086">
        <ele>161.8</ele>
        <time>2014-03-11T17:15:31Z</time>
      </trkpt>
      <trkpt lat="43.782265" lon="1.485029">
        <ele>162.1</ele>
        <time>2014-03-11T17:15:39Z</time>
      </trkpt>
      <trkpt lat="43.782166" lon="1.484989">
        <ele>162.3</ele>
        <time>2014-03-11T17:15:47Z</time>
      </trkpt>
      <trkpt lat="43.782078" lon="1.484945">
        <ele>162.4</ele>
        <time>2014-03-11T17:15:54Z</time>
      </trkpt>
      <trkpt lat="43.781987" lon="1.484900">
        <ele>162.7</ele>
        <time>2014-03-11T17:16:02Z</time>
      </trkpt>
      <trkpt lat="43.781900" lon="1.484844">
        <ele>162.9</ele>
        <time>2014-03-11T17:16:10Z</time>
      </trkpt>
      <trkpt lat="43.781815" lon="1.484789">
        <ele>163.2</ele>
        <time>2014-03-11T17:16:18Z</time>
      </trkpt>
      <trkpt lat="43.781730" lon="1.484728">
        <ele>163.5</ele>
        <time>2014-03-11T17:16:25Z</time>
      </trkpt>
      <trkpt lat="43.781653" lon="1.484657">
        <ele>163.8</ele>
        <time>2014-03-11T17:16:33Z</time>
      </trkpt>
      <trkpt lat="43.781580" lon="1.484585">
        <ele>163.9</ele>
        <time>2014-03-11T17:16:39Z</time>
      </trkpt>
      <trkpt lat="43.781498" lon="1.484489">
        <ele>164.3</ele>
        <time>2014-03-11T17:16:48Z</time>
      </trkpt>
      <trkpt lat="43.781416" lon="1.484397">
        <ele>164.5</ele>
        <time>2014-03-11T17:16:55Z</time>
      </trkpt>
      <trkpt lat="43.781360" lon="1.484309">
        <ele>164.5</ele>
        <time>2014-03-11T17:17:01Z</time>
      </trkpt>
      <trkpt lat="43.781299" lon="1.484204">
        <ele>164.8</ele>
        <time>2014-03-11T17:17:10Z</time>
      </trkpt>
      <trkpt lat="43.781249" lon="1.484071">
        <ele>164.9</ele>
        <time>2014-03-11T17:17:17Z</time>
      </trkpt>
      <trkpt lat="43.781197" lon="1.483963">
        <ele>165.1</ele>
        <time>2014-03-11T17:17:24Z</time>
      </trkpt>
      <trkpt lat="43.781133" lon="1.483854">
        <ele>165.1</ele>
        <time>2014-03-11T17:17:32Z</time>
      </trkpt>
      <trkpt lat="43.781093" lon="1.483745">
        <ele>165.4</ele>
        <time>2014-03-11T17:17:39Z</time>
      </trkpt>
      <trkpt lat="43.781026" lon="1.483622">
        <ele>165.4</ele>
        <time>2014-03-11T17:17:48Z</time>
      </trkpt>
      <trkpt lat="43.780979" lon="1.483511">
        <ele>165.8</ele>
        <time>2014-03-11T17:17:56Z</time>
      </trkpt>
      <trkpt lat="43.780921" lon="1.483412">
        <ele>166.0</ele>
        <time>2014-03-11T17:18:03Z</time>
      </trkpt>
      <trkpt lat="43.780844" lon="1.483321">
        <ele>166.4</ele>
        <time>2014-03-11T17:18:11Z</time>
      </trkpt>
      <trkpt lat="43.780757" lon="1.483245">
        <ele>166.7</ele>
        <time>2014-03-11T17:18:19Z</time>
      </trkpt>
      <trkpt lat="43.780686" lon="1.483165">
        <ele>167.1</ele>
        <time>2014-03-11T17:18:26Z</time>
      </trkpt>
      <trkpt lat="43.780600" lon="1.483077">
        <ele>167.6</ele>
        <time>2014-03-11T17:18:34Z</time>
      </trkpt>
      <trkpt lat="43.780524" lon="1.483003">
        <ele>168.3</ele>
        <time>2014-03-11T17:18:42Z</time>
      </trkpt>
      <trkpt lat="43.780442" lon="1.482929">
        <ele>169.0</ele>
        <time>2014-03-11T17:18:50Z</time>
      </trkpt>
      <trkpt lat="43.780365" lon="1.482849">
        <ele>169.6</ele>
        <time>2014-03-11T17:18:58Z</time>
      </trkpt>
      <trkpt lat="43.780298" lon="1.482766">
        <ele>170.3</ele>
        <time>2014-03-11T17:19:06Z</time>
      </trkpt>
      <trkpt lat="43.780228" lon="1.482686">
        <ele>171.7</ele>
        <time>2014-03-11T17:19:15Z</time>
      </trkpt>
      <trkpt lat="43.780161" lon="1.482590">
        <ele>172.4</ele>
        <time>2014-03-11T17:19:22Z</time>
      </trkpt>
      <trkpt lat="43.780084" lon="1.482492">
        <ele>173.1</ele>
        <time>2014-03-11T17:19:30Z</time>
      </trkpt>
      <trkpt lat="43.780024" lon="1.482387">
        <ele>173.7</ele>
        <time>2014-03-11T17:19:38Z</time>
      </trkpt>
      <trkpt lat="43.779944" lon="1.482293">
        <ele>174.2</ele>
        <time>2014-03-11T17:19:46Z</time>
      </trkpt>
      <trkpt lat="43.779855" lon="1.482182">
        <ele>174.7</ele>
        <time>2014-03-11T17:19:55Z</time>
      </trkpt>
      <trkpt lat="43.779787" lon="1.482091">
        <ele>174.9</ele>
        <time>2014-03-11T17:20:03Z</time>
      </trkpt>
      <trkpt lat="43.779704" lon="1.482006">
        <ele>175.2</ele>
        <time>2014-03-11T17:20:10Z</time>
      </trkpt>
      <trkpt lat="43.779637" lon="1.481908">
        <ele>175.4</ele>
        <time>2014-03-11T17:20:18Z</time>
      </trkpt>
      <trkpt lat="43.779582" lon="1.481799">
        <ele>175.7</ele>
        <time>2014-03-11T17:20:25Z</time>
      </trkpt>
      <trkpt lat="43.779521" lon="1.481714">
        <ele>176.1</ele>
        <time>2014-03-11T17:20:33Z</time>
      </trkpt>
      <trkpt lat="43.779457" lon="1.481628">
        <ele>176.6</ele>
        <time>2014-03-11T17:20:41Z</time>
      </trkpt>
      <trkpt lat="43.779385" lon="1.481548">
        <ele>177.2</ele>
        <time>2014-03-11T17:20:51Z</time>
      </trkpt>
      <trkpt lat="43.779362" lon="1.481409">
        <ele>177.6</ele>
        <time>2014-03-11T17:21:02Z</time>
      </trkpt>
      <trkpt lat="43.779373" lon="1.481279">
        <ele>178.3</ele>
        <time>2014-03-11T17:21:11Z</time>
      </trkpt>
      <trkpt lat="43.779399" lon="1.481151">
        <ele>178.7</ele>
        <time>2014-03-11T17:21:20Z</time>
      </trkpt>
      <trkpt lat="43.779418" lon="1.481031">
        <ele>179.3</ele>
        <time>2014-03-11T17:21:29Z</time>
      </trkpt>
      <trkpt lat="43.779419" lon="1.480898">
        <ele>180.2</ele>
        <time>2014-03-11T17:21:38Z</time>
      </trkpt>
      <trkpt lat="43.779413" lon="1.480754">
        <ele>181.3</ele>
        <time>2014-03-11T17:21:48Z</time>
      </trkpt>
      <trkpt lat="43.779417" lon="1.480610">
        <ele>182.4</ele>
        <time>2014-03-11T17:21:59Z</time>
      </trkpt>
      <trkpt lat="43.779407" lon="1.480461">
        <ele>183.8</ele>
        <time>2014-03-11T17:22:09Z</time>
      </trkpt>
      <trkpt lat="43.779392" lon="1.480320">
        <ele>184.6</ele>
        <time>2014-03-11T17:22:18Z</time>
      </trkpt>
      <trkpt lat="43.779322" lon="1.480219">
        <ele>185.4</ele>
        <time>2014-03-11T17:22:27Z</time>
      </trkpt>
      <trkpt lat="43.779251" lon="1.480124">
        <ele>186.3</ele>
        <time>2014-03-11T17:22:37Z</time>
      </trkpt>
      <trkpt lat="43.779133" lon="1.480097">
        <ele>187.2</ele>
        <time>2014-03-11T17:22:50Z</time>
      </trkpt>
      <trkpt lat="43.779022" lon="1.480065">
        <ele>187.8</ele>
        <time>2014-03-11T17:23:01Z</time>
      </trkpt>
      <trkpt lat="43.778939" lon="1.480023">
        <ele>188.1</ele>
        <time>2014-03-11T17:23:14Z</time>
      </trkpt>
      <trkpt lat="43.778900" lon="1.479906">
        <ele>188.2</ele>
        <time>2014-03-11T17:23:24Z</time>
      </trkpt>
      <trkpt lat="43.778833" lon="1.479788">
        <ele>189.0</ele>
        <time>2014-03-11T17:23:37Z</time>
      </trkpt>
      <trkpt lat="43.778780" lon="1.479664">
        <ele>189.3</ele>
        <time>2014-03-11T17:23:48Z</time>
      </trkpt>
      <trkpt lat="43.778734" lon="1.479520">
        <ele>189.7</ele>
        <time>2014-03-11T17:23:59Z</time>
      </trkpt>
      <trkpt lat="43.778690" lon="1.479382">
        <ele>189.9</ele>
        <time>2014-03-11T17:24:10Z</time>
      </trkpt>
      <trkpt lat="43.778584" lon="1.479305">
        <ele>190.0</ele>
        <time>2014-03-11T17:24:23Z</time>
      </trkpt>
      <trkpt lat="43.778470" lon="1.479253">
        <ele>190.4</ele>
        <time>2014-03-11T17:24:34Z</time>
      </trkpt>
      <trkpt lat="43.778391" lon="1.479165">
        <ele>190.5</ele>
        <time>2014-03-11T17:24:44Z</time>
      </trkpt>
      <trkpt lat="43.778300" lon="1.479158">
        <ele>190.4</ele>
        <time>2014-03-11T17:24:54Z</time>
      </trkpt>
      <trkpt lat="43.778236" lon="1.479161">
        <ele>191.0</ele>
        <time>2014-03-11T17:26:59Z</time>
      </trkpt>
    </trkseg>
  </trk>
</gpx>

